<?xml version="1.0" encoding="UTF-8" standalone="no" ?>
<gpx xmlns="http://www.topografix.com/GPX/1/1" xmlns:xsi="http://www.w3.org/2001/XMLSchema-instance" xsi:schemaLocation="http://www.topografix.com/GPX/1/1 http://www.topografix.com/GPX/1/1/gpx.xsd" version="1.1" creator="VisuGPX - https://www.visugpx.com">
  <metadata>
    <name>boucle grun bordas 10km</name>
  </metadata>
  <trk>
    <name><![CDATA[randogps24-305]]></name>
    <extensions>
      <line xmlns="http://www.topografix.com/GPX/gpx_style/0/2">
        <color>0000FF</color>
        <width>4</width>
      </line>
    </extensions>
    <trkseg>
      <trkpt lat="45.04786" lon="0.65343">
        <ele>118.86</ele>
        <time>2016-09-02T07:05:20Z</time>
      </trkpt>
      <trkpt lat="45.04786" lon="0.65343">
        <ele>118.86</ele>
        <time>2016-09-02T07:05:20Z</time>
      </trkpt>
      <trkpt lat="45.04786" lon="0.65344">
        <ele>119.34</ele>
        <time>2016-09-02T07:05:55Z</time>
      </trkpt>
      <trkpt lat="45.04789" lon="0.65346">
        <ele>119.34</ele>
        <time>2016-09-02T07:06:12Z</time>
      </trkpt>
      <trkpt lat="45.04788" lon="0.65345">
        <ele>119.34</ele>
        <time>2016-09-02T07:06:35Z</time>
      </trkpt>
      <trkpt lat="45.04786" lon="0.65345">
        <ele>119.34</ele>
        <time>2016-09-02T07:06:58Z</time>
      </trkpt>
      <trkpt lat="45.04786" lon="0.65346">
        <ele>119.34</ele>
        <time>2016-09-02T07:07:23Z</time>
      </trkpt>
      <trkpt lat="45.04786" lon="0.65347">
        <ele>119.34</ele>
        <time>2016-09-02T07:07:47Z</time>
      </trkpt>
      <trkpt lat="45.04786" lon="0.65349">
        <ele>119.34</ele>
        <time>2016-09-02T07:08:00Z</time>
      </trkpt>
      <trkpt lat="45.04787" lon="0.65357">
        <ele>119.34</ele>
        <time>2016-09-02T07:08:13Z</time>
      </trkpt>
      <trkpt lat="45.0479" lon="0.65355">
        <ele>117.9</ele>
        <time>2016-09-02T07:08:17Z</time>
      </trkpt>
      <trkpt lat="45.04804" lon="0.65342">
        <ele>116.46</ele>
        <time>2016-09-02T07:08:32Z</time>
      </trkpt>
      <trkpt lat="45.04822" lon="0.65332">
        <ele>115.01</ele>
        <time>2016-09-02T07:08:47Z</time>
      </trkpt>
      <trkpt lat="45.04827" lon="0.65324">
        <ele>114.05</ele>
        <time>2016-09-02T07:08:56Z</time>
      </trkpt>
      <trkpt lat="45.04828" lon="0.65298">
        <ele>114.05</ele>
        <time>2016-09-02T07:09:14Z</time>
      </trkpt>
      <trkpt lat="45.04828" lon="0.65288">
        <ele>114.05</ele>
        <time>2016-09-02T07:09:21Z</time>
      </trkpt>
      <trkpt lat="45.04825" lon="0.65279">
        <ele>114.05</ele>
        <time>2016-09-02T07:09:31Z</time>
      </trkpt>
      <trkpt lat="45.04811" lon="0.65256">
        <ele>115.01</ele>
        <time>2016-09-02T07:09:50Z</time>
      </trkpt>
      <trkpt lat="45.04804" lon="0.65234">
        <ele>115.5</ele>
        <time>2016-09-02T07:10:06Z</time>
      </trkpt>
      <trkpt lat="45.04797" lon="0.65216">
        <ele>115.5</ele>
        <time>2016-09-02T07:10:18Z</time>
      </trkpt>
      <trkpt lat="45.04794" lon="0.6521">
        <ele>115.98</ele>
        <time>2016-09-02T07:10:25Z</time>
      </trkpt>
      <trkpt lat="45.04779" lon="0.65198">
        <ele>116.46</ele>
        <time>2016-09-02T07:10:42Z</time>
      </trkpt>
      <trkpt lat="45.04759" lon="0.65195">
        <ele>116.94</ele>
        <time>2016-09-02T07:11:00Z</time>
      </trkpt>
      <trkpt lat="45.04739" lon="0.65192">
        <ele>117.9</ele>
        <time>2016-09-02T07:11:18Z</time>
      </trkpt>
      <trkpt lat="45.0472" lon="0.65187">
        <ele>118.86</ele>
        <time>2016-09-02T07:11:35Z</time>
      </trkpt>
      <trkpt lat="45.04709" lon="0.65185">
        <ele>119.82</ele>
        <time>2016-09-02T07:11:53Z</time>
      </trkpt>
      <trkpt lat="45.04708" lon="0.65185">
        <ele>119.82</ele>
        <time>2016-09-02T07:11:55Z</time>
      </trkpt>
      <trkpt lat="45.04705" lon="0.6518">
        <ele>119.82</ele>
        <time>2016-09-02T07:12:08Z</time>
      </trkpt>
      <trkpt lat="45.04703" lon="0.65178">
        <ele>119.82</ele>
        <time>2016-09-02T07:12:28Z</time>
      </trkpt>
      <trkpt lat="45.04702" lon="0.6518">
        <ele>119.82</ele>
        <time>2016-09-02T07:12:57Z</time>
      </trkpt>
      <trkpt lat="45.04687" lon="0.65183">
        <ele>121.26</ele>
        <time>2016-09-02T07:13:14Z</time>
      </trkpt>
      <trkpt lat="45.0467" lon="0.65187">
        <ele>121.74</ele>
        <time>2016-09-02T07:13:32Z</time>
      </trkpt>
      <trkpt lat="45.04652" lon="0.65197">
        <ele>122.71</ele>
        <time>2016-09-02T07:13:49Z</time>
      </trkpt>
      <trkpt lat="45.0463" lon="0.65202">
        <ele>123.19</ele>
        <time>2016-09-02T07:14:08Z</time>
      </trkpt>
      <trkpt lat="45.04623" lon="0.65202">
        <ele>123.67</ele>
        <time>2016-09-02T07:14:14Z</time>
      </trkpt>
      <trkpt lat="45.04618" lon="0.652">
        <ele>123.67</ele>
        <time>2016-09-02T07:14:18Z</time>
      </trkpt>
      <trkpt lat="45.04601" lon="0.65186">
        <ele>124.15</ele>
        <time>2016-09-02T07:14:33Z</time>
      </trkpt>
      <trkpt lat="45.04597" lon="0.65181">
        <ele>124.15</ele>
        <time>2016-09-02T07:14:37Z</time>
      </trkpt>
      <trkpt lat="45.04583" lon="0.65174">
        <ele>125.11</ele>
        <time>2016-09-02T07:14:52Z</time>
      </trkpt>
      <trkpt lat="45.04564" lon="0.65174">
        <ele>126.07</ele>
        <time>2016-09-02T07:15:07Z</time>
      </trkpt>
      <trkpt lat="45.04548" lon="0.65174">
        <ele>126.55</ele>
        <time>2016-09-02T07:15:21Z</time>
      </trkpt>
      <trkpt lat="45.04523" lon="0.65174">
        <ele>127.99</ele>
        <time>2016-09-02T07:15:41Z</time>
      </trkpt>
      <trkpt lat="45.04507" lon="0.65171">
        <ele>128.95</ele>
        <time>2016-09-02T07:15:57Z</time>
      </trkpt>
      <trkpt lat="45.04491" lon="0.65167">
        <ele>129.92</ele>
        <time>2016-09-02T07:16:15Z</time>
      </trkpt>
      <trkpt lat="45.04466" lon="0.65164">
        <ele>131.36</ele>
        <time>2016-09-02T07:16:32Z</time>
      </trkpt>
      <trkpt lat="45.04446" lon="0.65164">
        <ele>132.32</ele>
        <time>2016-09-02T07:16:51Z</time>
      </trkpt>
      <trkpt lat="45.04427" lon="0.65164">
        <ele>133.28</ele>
        <time>2016-09-02T07:17:06Z</time>
      </trkpt>
      <trkpt lat="45.04409" lon="0.65164">
        <ele>134.24</ele>
        <time>2016-09-02T07:17:21Z</time>
      </trkpt>
      <trkpt lat="45.0439" lon="0.65159">
        <ele>134.72</ele>
        <time>2016-09-02T07:17:39Z</time>
      </trkpt>
      <trkpt lat="45.04372" lon="0.65153">
        <ele>136.16</ele>
        <time>2016-09-02T07:17:55Z</time>
      </trkpt>
      <trkpt lat="45.04353" lon="0.65147">
        <ele>137.61</ele>
        <time>2016-09-02T07:18:12Z</time>
      </trkpt>
      <trkpt lat="45.04339" lon="0.65143">
        <ele>137.61</ele>
        <time>2016-09-02T07:18:26Z</time>
      </trkpt>
      <trkpt lat="45.04329" lon="0.65141">
        <ele>138.57</ele>
        <time>2016-09-02T07:18:35Z</time>
      </trkpt>
      <trkpt lat="45.04315" lon="0.65134">
        <ele>140.01</ele>
        <time>2016-09-02T07:18:51Z</time>
      </trkpt>
      <trkpt lat="45.04308" lon="0.65133">
        <ele>140.01</ele>
        <time>2016-09-02T07:18:57Z</time>
      </trkpt>
      <trkpt lat="45.04291" lon="0.65129">
        <ele>140.49</ele>
        <time>2016-09-02T07:19:11Z</time>
      </trkpt>
      <trkpt lat="45.04286" lon="0.65128">
        <ele>141.45</ele>
        <time>2016-09-02T07:19:15Z</time>
      </trkpt>
      <trkpt lat="45.04269" lon="0.65121">
        <ele>142.41</ele>
        <time>2016-09-02T07:19:30Z</time>
      </trkpt>
      <trkpt lat="45.04255" lon="0.65115">
        <ele>143.37</ele>
        <time>2016-09-02T07:19:41Z</time>
      </trkpt>
      <trkpt lat="45.04242" lon="0.65106">
        <ele>145.3</ele>
        <time>2016-09-02T07:19:58Z</time>
      </trkpt>
      <trkpt lat="45.0422" lon="0.65096">
        <ele>147.7</ele>
        <time>2016-09-02T07:20:18Z</time>
      </trkpt>
      <trkpt lat="45.04202" lon="0.65086">
        <ele>149.62</ele>
        <time>2016-09-02T07:20:37Z</time>
      </trkpt>
      <trkpt lat="45.04195" lon="0.65086">
        <ele>151.06</ele>
        <time>2016-09-02T07:20:44Z</time>
      </trkpt>
      <trkpt lat="45.0418" lon="0.65088">
        <ele>152.51</ele>
        <time>2016-09-02T07:20:58Z</time>
      </trkpt>
      <trkpt lat="45.04163" lon="0.65092">
        <ele>155.39</ele>
        <time>2016-09-02T07:21:17Z</time>
      </trkpt>
      <trkpt lat="45.04145" lon="0.6509">
        <ele>158.27</ele>
        <time>2016-09-02T07:21:35Z</time>
      </trkpt>
      <trkpt lat="45.04129" lon="0.65094">
        <ele>160.68</ele>
        <time>2016-09-02T07:21:53Z</time>
      </trkpt>
      <trkpt lat="45.04113" lon="0.6509">
        <ele>162.12</ele>
        <time>2016-09-02T07:22:10Z</time>
      </trkpt>
      <trkpt lat="45.04103" lon="0.65079">
        <ele>163.08</ele>
        <time>2016-09-02T07:22:26Z</time>
      </trkpt>
      <trkpt lat="45.04097" lon="0.65074">
        <ele>163.08</ele>
        <time>2016-09-02T07:22:40Z</time>
      </trkpt>
      <trkpt lat="45.04094" lon="0.65069">
        <ele>163.56</ele>
        <time>2016-09-02T07:22:53Z</time>
      </trkpt>
      <trkpt lat="45.04084" lon="0.65078">
        <ele>164.52</ele>
        <time>2016-09-02T07:23:10Z</time>
      </trkpt>
      <trkpt lat="45.04078" lon="0.65091">
        <ele>165.48</ele>
        <time>2016-09-02T07:23:25Z</time>
      </trkpt>
      <trkpt lat="45.04079" lon="0.65104">
        <ele>166.93</ele>
        <time>2016-09-02T07:23:40Z</time>
      </trkpt>
      <trkpt lat="45.0408" lon="0.6511">
        <ele>167.41</ele>
        <time>2016-09-02T07:23:46Z</time>
      </trkpt>
      <trkpt lat="45.04081" lon="0.65117">
        <ele>168.37</ele>
        <time>2016-09-02T07:23:52Z</time>
      </trkpt>
      <trkpt lat="45.04084" lon="0.65136">
        <ele>169.33</ele>
        <time>2016-09-02T07:24:07Z</time>
      </trkpt>
      <trkpt lat="45.04086" lon="0.65159">
        <ele>170.77</ele>
        <time>2016-09-02T07:24:25Z</time>
      </trkpt>
      <trkpt lat="45.04095" lon="0.65177">
        <ele>172.21</ele>
        <time>2016-09-02T07:24:41Z</time>
      </trkpt>
      <trkpt lat="45.04105" lon="0.65197">
        <ele>173.66</ele>
        <time>2016-09-02T07:24:57Z</time>
      </trkpt>
      <trkpt lat="45.04113" lon="0.65209">
        <ele>175.1</ele>
        <time>2016-09-02T07:25:11Z</time>
      </trkpt>
      <trkpt lat="45.04115" lon="0.65211">
        <ele>175.1</ele>
        <time>2016-09-02T07:25:13Z</time>
      </trkpt>
      <trkpt lat="45.04119" lon="0.65229">
        <ele>176.54</ele>
        <time>2016-09-02T07:25:28Z</time>
      </trkpt>
      <trkpt lat="45.04111" lon="0.65234">
        <ele>177.98</ele>
        <time>2016-09-02T07:25:40Z</time>
      </trkpt>
      <trkpt lat="45.04108" lon="0.65235">
        <ele>178.46</ele>
        <time>2016-09-02T07:25:43Z</time>
      </trkpt>
      <trkpt lat="45.04104" lon="0.65235">
        <ele>178.46</ele>
        <time>2016-09-02T07:25:46Z</time>
      </trkpt>
      <trkpt lat="45.04088" lon="0.65234">
        <ele>179.9</ele>
        <time>2016-09-02T07:26:01Z</time>
      </trkpt>
      <trkpt lat="45.04073" lon="0.65232">
        <ele>180.87</ele>
        <time>2016-09-02T07:26:16Z</time>
      </trkpt>
      <trkpt lat="45.04059" lon="0.6523">
        <ele>181.83</ele>
        <time>2016-09-02T07:26:30Z</time>
      </trkpt>
      <trkpt lat="45.04047" lon="0.6522">
        <ele>183.27</ele>
        <time>2016-09-02T07:26:44Z</time>
      </trkpt>
      <trkpt lat="45.04037" lon="0.65212">
        <ele>185.19</ele>
        <time>2016-09-02T07:26:58Z</time>
      </trkpt>
      <trkpt lat="45.04024" lon="0.652">
        <ele>187.11</ele>
        <time>2016-09-02T07:27:14Z</time>
      </trkpt>
      <trkpt lat="45.04011" lon="0.6519">
        <ele>189.52</ele>
        <time>2016-09-02T07:27:30Z</time>
      </trkpt>
      <trkpt lat="45.04001" lon="0.65181">
        <ele>190</ele>
        <time>2016-09-02T07:27:44Z</time>
      </trkpt>
      <trkpt lat="45.03989" lon="0.65172">
        <ele>191.44</ele>
        <time>2016-09-02T07:27:59Z</time>
      </trkpt>
      <trkpt lat="45.03975" lon="0.65164">
        <ele>192.88</ele>
        <time>2016-09-02T07:28:16Z</time>
      </trkpt>
      <trkpt lat="45.03961" lon="0.65156">
        <ele>195.28</ele>
        <time>2016-09-02T07:28:34Z</time>
      </trkpt>
      <trkpt lat="45.03946" lon="0.65149">
        <ele>196.25</ele>
        <time>2016-09-02T07:28:51Z</time>
      </trkpt>
      <trkpt lat="45.03932" lon="0.65147">
        <ele>197.21</ele>
        <time>2016-09-02T07:29:08Z</time>
      </trkpt>
      <trkpt lat="45.03923" lon="0.65151">
        <ele>198.17</ele>
        <time>2016-09-02T07:29:21Z</time>
      </trkpt>
      <trkpt lat="45.03916" lon="0.65166">
        <ele>200.09</ele>
        <time>2016-09-02T07:29:37Z</time>
      </trkpt>
      <trkpt lat="45.03916" lon="0.6517">
        <ele>200.09</ele>
        <time>2016-09-02T07:29:40Z</time>
      </trkpt>
      <trkpt lat="45.03921" lon="0.65189">
        <ele>201.05</ele>
        <time>2016-09-02T07:29:55Z</time>
      </trkpt>
      <trkpt lat="45.03925" lon="0.65206">
        <ele>202.49</ele>
        <time>2016-09-02T07:30:12Z</time>
      </trkpt>
      <trkpt lat="45.03928" lon="0.6522">
        <ele>202.98</ele>
        <time>2016-09-02T07:30:30Z</time>
      </trkpt>
      <trkpt lat="45.03931" lon="0.6524">
        <ele>204.42</ele>
        <time>2016-09-02T07:30:47Z</time>
      </trkpt>
      <trkpt lat="45.03933" lon="0.65261">
        <ele>205.38</ele>
        <time>2016-09-02T07:31:03Z</time>
      </trkpt>
      <trkpt lat="45.03931" lon="0.65286">
        <ele>206.82</ele>
        <time>2016-09-02T07:31:21Z</time>
      </trkpt>
      <trkpt lat="45.0392" lon="0.65289">
        <ele>206.82</ele>
        <time>2016-09-02T07:31:37Z</time>
      </trkpt>
      <trkpt lat="45.03917" lon="0.65287">
        <ele>206.82</ele>
        <time>2016-09-02T07:31:40Z</time>
      </trkpt>
      <trkpt lat="45.03908" lon="0.65279">
        <ele>206.82</ele>
        <time>2016-09-02T07:31:50Z</time>
      </trkpt>
      <trkpt lat="45.03904" lon="0.65269">
        <ele>206.82</ele>
        <time>2016-09-02T07:31:57Z</time>
      </trkpt>
      <trkpt lat="45.03893" lon="0.65248">
        <ele>204.9</ele>
        <time>2016-09-02T07:32:15Z</time>
      </trkpt>
      <trkpt lat="45.03886" lon="0.65229">
        <ele>204.42</ele>
        <time>2016-09-02T07:32:29Z</time>
      </trkpt>
      <trkpt lat="45.03879" lon="0.65215">
        <ele>203.94</ele>
        <time>2016-09-02T07:32:43Z</time>
      </trkpt>
      <trkpt lat="45.03878" lon="0.65213">
        <ele>203.94</ele>
        <time>2016-09-02T07:32:45Z</time>
      </trkpt>
      <trkpt lat="45.03874" lon="0.65208">
        <ele>203.46</ele>
        <time>2016-09-02T07:32:49Z</time>
      </trkpt>
      <trkpt lat="45.03863" lon="0.65188">
        <ele>202.49</ele>
        <time>2016-09-02T07:33:06Z</time>
      </trkpt>
      <trkpt lat="45.03857" lon="0.65177">
        <ele>202.49</ele>
        <time>2016-09-02T07:33:16Z</time>
      </trkpt>
      <trkpt lat="45.0385" lon="0.65152">
        <ele>202.01</ele>
        <time>2016-09-02T07:33:32Z</time>
      </trkpt>
      <trkpt lat="45.0385" lon="0.65149">
        <ele>202.01</ele>
        <time>2016-09-02T07:33:34Z</time>
      </trkpt>
      <trkpt lat="45.03848" lon="0.65127">
        <ele>202.01</ele>
        <time>2016-09-02T07:33:51Z</time>
      </trkpt>
      <trkpt lat="45.03849" lon="0.6511">
        <ele>202.49</ele>
        <time>2016-09-02T07:34:01Z</time>
      </trkpt>
      <trkpt lat="45.03853" lon="0.65083">
        <ele>202.49</ele>
        <time>2016-09-02T07:34:17Z</time>
      </trkpt>
      <trkpt lat="45.03852" lon="0.6506">
        <ele>202.49</ele>
        <time>2016-09-02T07:34:31Z</time>
      </trkpt>
      <trkpt lat="45.03853" lon="0.65041">
        <ele>203.46</ele>
        <time>2016-09-02T07:34:45Z</time>
      </trkpt>
      <trkpt lat="45.03848" lon="0.65016">
        <ele>204.42</ele>
        <time>2016-09-02T07:35:03Z</time>
      </trkpt>
      <trkpt lat="45.03845" lon="0.64996">
        <ele>204.9</ele>
        <time>2016-09-02T07:35:19Z</time>
      </trkpt>
      <trkpt lat="45.03844" lon="0.64994">
        <ele>204.9</ele>
        <time>2016-09-02T07:35:20Z</time>
      </trkpt>
      <trkpt lat="45.03843" lon="0.6497">
        <ele>205.38</ele>
        <time>2016-09-02T07:35:35Z</time>
      </trkpt>
      <trkpt lat="45.03839" lon="0.64948">
        <ele>205.86</ele>
        <time>2016-09-02T07:35:50Z</time>
      </trkpt>
      <trkpt lat="45.03836" lon="0.64939">
        <ele>206.82</ele>
        <time>2016-09-02T07:35:58Z</time>
      </trkpt>
      <trkpt lat="45.03826" lon="0.64932">
        <ele>207.3</ele>
        <time>2016-09-02T07:36:14Z</time>
      </trkpt>
      <trkpt lat="45.0381" lon="0.64919">
        <ele>206.82</ele>
        <time>2016-09-02T07:36:31Z</time>
      </trkpt>
      <trkpt lat="45.03807" lon="0.64918">
        <ele>206.82</ele>
        <time>2016-09-02T07:36:37Z</time>
      </trkpt>
      <trkpt lat="45.03799" lon="0.64906">
        <ele>205.86</ele>
        <time>2016-09-02T07:36:50Z</time>
      </trkpt>
      <trkpt lat="45.03798" lon="0.64905">
        <ele>205.86</ele>
        <time>2016-09-02T07:36:52Z</time>
      </trkpt>
      <trkpt lat="45.03783" lon="0.64889">
        <ele>204.9</ele>
        <time>2016-09-02T07:37:09Z</time>
      </trkpt>
      <trkpt lat="45.03776" lon="0.64883">
        <ele>204.42</ele>
        <time>2016-09-02T07:37:16Z</time>
      </trkpt>
      <trkpt lat="45.03771" lon="0.64881">
        <ele>203.94</ele>
        <time>2016-09-02T07:37:19Z</time>
      </trkpt>
      <trkpt lat="45.03759" lon="0.64871">
        <ele>202.98</ele>
        <time>2016-09-02T07:37:31Z</time>
      </trkpt>
      <trkpt lat="45.03745" lon="0.64855">
        <ele>201.53</ele>
        <time>2016-09-02T07:37:50Z</time>
      </trkpt>
      <trkpt lat="45.03725" lon="0.64845">
        <ele>200.09</ele>
        <time>2016-09-02T07:38:08Z</time>
      </trkpt>
      <trkpt lat="45.03716" lon="0.6484">
        <ele>199.13</ele>
        <time>2016-09-02T07:38:18Z</time>
      </trkpt>
      <trkpt lat="45.03714" lon="0.64839">
        <ele>199.13</ele>
        <time>2016-09-02T07:38:20Z</time>
      </trkpt>
      <trkpt lat="45.03698" lon="0.64832">
        <ele>197.69</ele>
        <time>2016-09-02T07:38:35Z</time>
      </trkpt>
      <trkpt lat="45.03686" lon="0.64827">
        <ele>196.73</ele>
        <time>2016-09-02T07:38:46Z</time>
      </trkpt>
      <trkpt lat="45.03668" lon="0.64819">
        <ele>195.28</ele>
        <time>2016-09-02T07:39:02Z</time>
      </trkpt>
      <trkpt lat="45.03665" lon="0.64818">
        <ele>194.8</ele>
        <time>2016-09-02T07:39:05Z</time>
      </trkpt>
      <trkpt lat="45.03649" lon="0.64809">
        <ele>192.88</ele>
        <time>2016-09-02T07:39:20Z</time>
      </trkpt>
      <trkpt lat="45.03632" lon="0.64801">
        <ele>190</ele>
        <time>2016-09-02T07:39:38Z</time>
      </trkpt>
      <trkpt lat="45.03615" lon="0.64793">
        <ele>188.08</ele>
        <time>2016-09-02T07:39:54Z</time>
      </trkpt>
      <trkpt lat="45.036" lon="0.64787">
        <ele>184.71</ele>
        <time>2016-09-02T07:40:08Z</time>
      </trkpt>
      <trkpt lat="45.03584" lon="0.64778">
        <ele>181.83</ele>
        <time>2016-09-02T07:40:25Z</time>
      </trkpt>
      <trkpt lat="45.03573" lon="0.6477">
        <ele>179.9</ele>
        <time>2016-09-02T07:40:39Z</time>
      </trkpt>
      <trkpt lat="45.03557" lon="0.64759">
        <ele>178.46</ele>
        <time>2016-09-02T07:40:56Z</time>
      </trkpt>
      <trkpt lat="45.03555" lon="0.64756">
        <ele>178.46</ele>
        <time>2016-09-02T07:41:01Z</time>
      </trkpt>
      <trkpt lat="45.03553" lon="0.64756">
        <ele>178.46</ele>
        <time>2016-09-02T07:41:03Z</time>
      </trkpt>
      <trkpt lat="45.03531" lon="0.64754">
        <ele>176.06</ele>
        <time>2016-09-02T07:41:20Z</time>
      </trkpt>
      <trkpt lat="45.03513" lon="0.64754">
        <ele>174.62</ele>
        <time>2016-09-02T07:41:35Z</time>
      </trkpt>
      <trkpt lat="45.03496" lon="0.64759">
        <ele>171.73</ele>
        <time>2016-09-02T07:41:50Z</time>
      </trkpt>
      <trkpt lat="45.03487" lon="0.64764">
        <ele>168.37</ele>
        <time>2016-09-02T07:42:04Z</time>
      </trkpt>
      <trkpt lat="45.03471" lon="0.6477">
        <ele>165</ele>
        <time>2016-09-02T07:42:19Z</time>
      </trkpt>
      <trkpt lat="45.03454" lon="0.6477">
        <ele>162.6</ele>
        <time>2016-09-02T07:42:33Z</time>
      </trkpt>
      <trkpt lat="45.03435" lon="0.64776">
        <ele>160.68</ele>
        <time>2016-09-02T07:42:49Z</time>
      </trkpt>
      <trkpt lat="45.03415" lon="0.64776">
        <ele>160.68</ele>
        <time>2016-09-02T07:43:04Z</time>
      </trkpt>
      <trkpt lat="45.034" lon="0.6478">
        <ele>160.68</ele>
        <time>2016-09-02T07:43:18Z</time>
      </trkpt>
      <trkpt lat="45.03388" lon="0.64788">
        <ele>160.68</ele>
        <time>2016-09-02T07:43:31Z</time>
      </trkpt>
      <trkpt lat="45.03383" lon="0.64789">
        <ele>160.68</ele>
        <time>2016-09-02T07:43:37Z</time>
      </trkpt>
      <trkpt lat="45.03369" lon="0.64792">
        <ele>160.68</ele>
        <time>2016-09-02T07:43:49Z</time>
      </trkpt>
      <trkpt lat="45.03354" lon="0.6479">
        <ele>160.68</ele>
        <time>2016-09-02T07:44:03Z</time>
      </trkpt>
      <trkpt lat="45.03346" lon="0.64791">
        <ele>162.12</ele>
        <time>2016-09-02T07:44:13Z</time>
      </trkpt>
      <trkpt lat="45.0333" lon="0.64787">
        <ele>163.08</ele>
        <time>2016-09-02T07:44:32Z</time>
      </trkpt>
      <trkpt lat="45.03317" lon="0.64787">
        <ele>164.04</ele>
        <time>2016-09-02T07:44:48Z</time>
      </trkpt>
      <trkpt lat="45.03305" lon="0.64772">
        <ele>165.96</ele>
        <time>2016-09-02T07:45:05Z</time>
      </trkpt>
      <trkpt lat="45.03304" lon="0.64769">
        <ele>165.96</ele>
        <time>2016-09-02T07:45:07Z</time>
      </trkpt>
      <trkpt lat="45.03294" lon="0.64748">
        <ele>167.41</ele>
        <time>2016-09-02T07:45:24Z</time>
      </trkpt>
      <trkpt lat="45.03287" lon="0.64733">
        <ele>168.85</ele>
        <time>2016-09-02T07:45:37Z</time>
      </trkpt>
      <trkpt lat="45.03285" lon="0.64718">
        <ele>169.81</ele>
        <time>2016-09-02T07:45:48Z</time>
      </trkpt>
      <trkpt lat="45.03279" lon="0.64697">
        <ele>171.25</ele>
        <time>2016-09-02T07:46:03Z</time>
      </trkpt>
      <trkpt lat="45.03273" lon="0.64677">
        <ele>172.69</ele>
        <time>2016-09-02T07:46:17Z</time>
      </trkpt>
      <trkpt lat="45.0327" lon="0.64668">
        <ele>173.66</ele>
        <time>2016-09-02T07:46:24Z</time>
      </trkpt>
      <trkpt lat="45.03262" lon="0.64653">
        <ele>175.58</ele>
        <time>2016-09-02T07:46:40Z</time>
      </trkpt>
      <trkpt lat="45.03256" lon="0.64633">
        <ele>177.98</ele>
        <time>2016-09-02T07:46:58Z</time>
      </trkpt>
      <trkpt lat="45.0325" lon="0.64615">
        <ele>179.9</ele>
        <time>2016-09-02T07:47:16Z</time>
      </trkpt>
      <trkpt lat="45.03246" lon="0.64598">
        <ele>181.83</ele>
        <time>2016-09-02T07:47:30Z</time>
      </trkpt>
      <trkpt lat="45.03247" lon="0.64591">
        <ele>182.31</ele>
        <time>2016-09-02T07:47:41Z</time>
      </trkpt>
      <trkpt lat="45.03244" lon="0.64584">
        <ele>183.27</ele>
        <time>2016-09-02T07:47:58Z</time>
      </trkpt>
      <trkpt lat="45.03242" lon="0.64572">
        <ele>184.71</ele>
        <time>2016-09-02T07:48:08Z</time>
      </trkpt>
      <trkpt lat="45.03241" lon="0.64554">
        <ele>187.11</ele>
        <time>2016-09-02T07:48:23Z</time>
      </trkpt>
      <trkpt lat="45.03241" lon="0.64529">
        <ele>188.56</ele>
        <time>2016-09-02T07:48:39Z</time>
      </trkpt>
      <trkpt lat="45.03247" lon="0.64503">
        <ele>189.52</ele>
        <time>2016-09-02T07:48:57Z</time>
      </trkpt>
      <trkpt lat="45.03251" lon="0.64489">
        <ele>190</ele>
        <time>2016-09-02T07:49:10Z</time>
      </trkpt>
      <trkpt lat="45.03258" lon="0.64471">
        <ele>191.44</ele>
        <time>2016-09-02T07:49:25Z</time>
      </trkpt>
      <trkpt lat="45.03265" lon="0.64448">
        <ele>191.92</ele>
        <time>2016-09-02T07:49:43Z</time>
      </trkpt>
      <trkpt lat="45.0327" lon="0.64433">
        <ele>193.36</ele>
        <time>2016-09-02T07:49:58Z</time>
      </trkpt>
      <trkpt lat="45.0327" lon="0.64431">
        <ele>193.36</ele>
        <time>2016-09-02T07:50:00Z</time>
      </trkpt>
      <trkpt lat="45.0327" lon="0.64425">
        <ele>193.36</ele>
        <time>2016-09-02T07:50:05Z</time>
      </trkpt>
      <trkpt lat="45.03263" lon="0.64412">
        <ele>193.36</ele>
        <time>2016-09-02T07:50:17Z</time>
      </trkpt>
      <trkpt lat="45.03245" lon="0.64402">
        <ele>193.36</ele>
        <time>2016-09-02T07:50:37Z</time>
      </trkpt>
      <trkpt lat="45.03225" lon="0.64397">
        <ele>193.84</ele>
        <time>2016-09-02T07:50:57Z</time>
      </trkpt>
      <trkpt lat="45.03209" lon="0.64396">
        <ele>195.77</ele>
        <time>2016-09-02T07:51:13Z</time>
      </trkpt>
      <trkpt lat="45.03192" lon="0.64396">
        <ele>196.73</ele>
        <time>2016-09-02T07:51:28Z</time>
      </trkpt>
      <trkpt lat="45.03172" lon="0.64395">
        <ele>198.65</ele>
        <time>2016-09-02T07:51:47Z</time>
      </trkpt>
      <trkpt lat="45.03163" lon="0.64392">
        <ele>199.13</ele>
        <time>2016-09-02T07:51:56Z</time>
      </trkpt>
      <trkpt lat="45.03161" lon="0.6439">
        <ele>199.13</ele>
        <time>2016-09-02T07:51:59Z</time>
      </trkpt>
      <trkpt lat="45.03163" lon="0.64375">
        <ele>199.61</ele>
        <time>2016-09-02T07:52:12Z</time>
      </trkpt>
      <trkpt lat="45.03172" lon="0.64353">
        <ele>200.09</ele>
        <time>2016-09-02T07:52:30Z</time>
      </trkpt>
      <trkpt lat="45.03181" lon="0.6433">
        <ele>200.09</ele>
        <time>2016-09-02T07:52:48Z</time>
      </trkpt>
      <trkpt lat="45.03194" lon="0.64309">
        <ele>200.57</ele>
        <time>2016-09-02T07:53:07Z</time>
      </trkpt>
      <trkpt lat="45.03211" lon="0.64289">
        <ele>200.57</ele>
        <time>2016-09-02T07:53:27Z</time>
      </trkpt>
      <trkpt lat="45.03228" lon="0.64274">
        <ele>200.57</ele>
        <time>2016-09-02T07:53:46Z</time>
      </trkpt>
      <trkpt lat="45.03249" lon="0.64261">
        <ele>200.57</ele>
        <time>2016-09-02T07:54:06Z</time>
      </trkpt>
      <trkpt lat="45.03264" lon="0.64247">
        <ele>200.57</ele>
        <time>2016-09-02T07:54:24Z</time>
      </trkpt>
      <trkpt lat="45.03265" lon="0.64246">
        <ele>200.57</ele>
        <time>2016-09-02T07:54:25Z</time>
      </trkpt>
      <trkpt lat="45.03279" lon="0.64222">
        <ele>200.57</ele>
        <time>2016-09-02T07:54:44Z</time>
      </trkpt>
      <trkpt lat="45.0329" lon="0.64195">
        <ele>201.53</ele>
        <time>2016-09-02T07:55:04Z</time>
      </trkpt>
      <trkpt lat="45.03293" lon="0.64189">
        <ele>202.01</ele>
        <time>2016-09-02T07:55:18Z</time>
      </trkpt>
      <trkpt lat="45.03294" lon="0.64188">
        <ele>202.01</ele>
        <time>2016-09-02T07:55:31Z</time>
      </trkpt>
      <trkpt lat="45.03298" lon="0.64188">
        <ele>202.01</ele>
        <time>2016-09-02T07:55:57Z</time>
      </trkpt>
      <trkpt lat="45.033" lon="0.6419">
        <ele>202.01</ele>
        <time>2016-09-02T07:56:20Z</time>
      </trkpt>
      <trkpt lat="45.03302" lon="0.64191">
        <ele>202.01</ele>
        <time>2016-09-02T07:56:33Z</time>
      </trkpt>
      <trkpt lat="45.03314" lon="0.642">
        <ele>202.98</ele>
        <time>2016-09-02T07:56:49Z</time>
      </trkpt>
      <trkpt lat="45.03328" lon="0.64207">
        <ele>202.98</ele>
        <time>2016-09-02T07:57:05Z</time>
      </trkpt>
      <trkpt lat="45.03338" lon="0.64214">
        <ele>203.46</ele>
        <time>2016-09-02T07:57:18Z</time>
      </trkpt>
      <trkpt lat="45.03353" lon="0.64223">
        <ele>203.94</ele>
        <time>2016-09-02T07:57:34Z</time>
      </trkpt>
      <trkpt lat="45.03366" lon="0.64234">
        <ele>204.9</ele>
        <time>2016-09-02T07:57:50Z</time>
      </trkpt>
      <trkpt lat="45.03375" lon="0.64242">
        <ele>205.86</ele>
        <time>2016-09-02T07:58:04Z</time>
      </trkpt>
      <trkpt lat="45.03384" lon="0.64248">
        <ele>206.82</ele>
        <time>2016-09-02T07:58:17Z</time>
      </trkpt>
      <trkpt lat="45.03392" lon="0.64254">
        <ele>207.3</ele>
        <time>2016-09-02T07:58:32Z</time>
      </trkpt>
      <trkpt lat="45.034" lon="0.64261">
        <ele>208.26</ele>
        <time>2016-09-02T07:58:46Z</time>
      </trkpt>
      <trkpt lat="45.0341" lon="0.64268">
        <ele>209.22</ele>
        <time>2016-09-02T07:59:00Z</time>
      </trkpt>
      <trkpt lat="45.03421" lon="0.64277">
        <ele>210.19</ele>
        <time>2016-09-02T07:59:14Z</time>
      </trkpt>
      <trkpt lat="45.03431" lon="0.64287">
        <ele>211.63</ele>
        <time>2016-09-02T07:59:28Z</time>
      </trkpt>
      <trkpt lat="45.03441" lon="0.64297">
        <ele>212.11</ele>
        <time>2016-09-02T07:59:41Z</time>
      </trkpt>
      <trkpt lat="45.03451" lon="0.64308">
        <ele>213.07</ele>
        <time>2016-09-02T07:59:55Z</time>
      </trkpt>
      <trkpt lat="45.03462" lon="0.6432">
        <ele>214.03</ele>
        <time>2016-09-02T08:00:09Z</time>
      </trkpt>
      <trkpt lat="45.03475" lon="0.64333">
        <ele>214.51</ele>
        <time>2016-09-02T08:00:24Z</time>
      </trkpt>
      <trkpt lat="45.03486" lon="0.64344">
        <ele>214.99</ele>
        <time>2016-09-02T08:00:38Z</time>
      </trkpt>
      <trkpt lat="45.03493" lon="0.64344">
        <ele>214.99</ele>
        <time>2016-09-02T08:00:54Z</time>
      </trkpt>
      <trkpt lat="45.03493" lon="0.64343">
        <ele>214.99</ele>
        <time>2016-09-02T08:00:55Z</time>
      </trkpt>
      <trkpt lat="45.03504" lon="0.64323">
        <ele>215.47</ele>
        <time>2016-09-02T08:01:15Z</time>
      </trkpt>
      <trkpt lat="45.03514" lon="0.64306">
        <ele>215.47</ele>
        <time>2016-09-02T08:01:31Z</time>
      </trkpt>
      <trkpt lat="45.03526" lon="0.64293">
        <ele>215.95</ele>
        <time>2016-09-02T08:01:47Z</time>
      </trkpt>
      <trkpt lat="45.03542" lon="0.64281">
        <ele>215.95</ele>
        <time>2016-09-02T08:02:04Z</time>
      </trkpt>
      <trkpt lat="45.03553" lon="0.64273">
        <ele>215.95</ele>
        <time>2016-09-02T08:02:16Z</time>
      </trkpt>
      <trkpt lat="45.03571" lon="0.64264">
        <ele>215.95</ele>
        <time>2016-09-02T08:02:32Z</time>
      </trkpt>
      <trkpt lat="45.03574" lon="0.64259">
        <ele>215.95</ele>
        <time>2016-09-02T08:02:37Z</time>
      </trkpt>
      <trkpt lat="45.03586" lon="0.64238">
        <ele>214.51</ele>
        <time>2016-09-02T08:02:54Z</time>
      </trkpt>
      <trkpt lat="45.03599" lon="0.64219">
        <ele>214.03</ele>
        <time>2016-09-02T08:03:11Z</time>
      </trkpt>
      <trkpt lat="45.0361" lon="0.64201">
        <ele>212.59</ele>
        <time>2016-09-02T08:03:26Z</time>
      </trkpt>
      <trkpt lat="45.0362" lon="0.64183">
        <ele>211.15</ele>
        <time>2016-09-02T08:03:42Z</time>
      </trkpt>
      <trkpt lat="45.03634" lon="0.64172">
        <ele>211.15</ele>
        <time>2016-09-02T08:03:58Z</time>
      </trkpt>
      <trkpt lat="45.03644" lon="0.64163">
        <ele>211.15</ele>
        <time>2016-09-02T08:04:08Z</time>
      </trkpt>
      <trkpt lat="45.03657" lon="0.64144">
        <ele>210.67</ele>
        <time>2016-09-02T08:04:24Z</time>
      </trkpt>
      <trkpt lat="45.03666" lon="0.64127">
        <ele>210.67</ele>
        <time>2016-09-02T08:04:38Z</time>
      </trkpt>
      <trkpt lat="45.03674" lon="0.64109">
        <ele>210.67</ele>
        <time>2016-09-02T08:04:52Z</time>
      </trkpt>
      <trkpt lat="45.03678" lon="0.641">
        <ele>210.19</ele>
        <time>2016-09-02T08:04:59Z</time>
      </trkpt>
      <trkpt lat="45.0369" lon="0.64082">
        <ele>210.19</ele>
        <time>2016-09-02T08:05:16Z</time>
      </trkpt>
      <trkpt lat="45.03702" lon="0.64064">
        <ele>212.11</ele>
        <time>2016-09-02T08:05:32Z</time>
      </trkpt>
      <trkpt lat="45.03704" lon="0.64059">
        <ele>212.59</ele>
        <time>2016-09-02T08:05:39Z</time>
      </trkpt>
      <trkpt lat="45.03715" lon="0.64036">
        <ele>212.59</ele>
        <time>2016-09-02T08:05:55Z</time>
      </trkpt>
      <trkpt lat="45.03719" lon="0.64021">
        <ele>213.55</ele>
        <time>2016-09-02T08:06:09Z</time>
      </trkpt>
      <trkpt lat="45.03722" lon="0.64007">
        <ele>213.55</ele>
        <time>2016-09-02T08:06:20Z</time>
      </trkpt>
      <trkpt lat="45.03727" lon="0.63988">
        <ele>214.03</ele>
        <time>2016-09-02T08:06:35Z</time>
      </trkpt>
      <trkpt lat="45.03733" lon="0.63968">
        <ele>214.51</ele>
        <time>2016-09-02T08:06:50Z</time>
      </trkpt>
      <trkpt lat="45.03735" lon="0.63961">
        <ele>214.51</ele>
        <time>2016-09-02T08:06:55Z</time>
      </trkpt>
      <trkpt lat="45.03741" lon="0.63933">
        <ele>214.51</ele>
        <time>2016-09-02T08:07:14Z</time>
      </trkpt>
      <trkpt lat="45.03743" lon="0.63924">
        <ele>214.51</ele>
        <time>2016-09-02T08:07:28Z</time>
      </trkpt>
      <trkpt lat="45.03744" lon="0.63921">
        <ele>214.51</ele>
        <time>2016-09-02T08:07:50Z</time>
      </trkpt>
      <trkpt lat="45.03743" lon="0.63917">
        <ele>214.51</ele>
        <time>2016-09-02T08:08:07Z</time>
      </trkpt>
      <trkpt lat="45.03745" lon="0.63915">
        <ele>214.51</ele>
        <time>2016-09-02T08:08:22Z</time>
      </trkpt>
      <trkpt lat="45.03741" lon="0.63906">
        <ele>214.51</ele>
        <time>2016-09-02T08:08:32Z</time>
      </trkpt>
      <trkpt lat="45.03733" lon="0.63902">
        <ele>213.07</ele>
        <time>2016-09-02T08:08:44Z</time>
      </trkpt>
      <trkpt lat="45.03721" lon="0.63904">
        <ele>213.07</ele>
        <time>2016-09-02T08:08:57Z</time>
      </trkpt>
      <trkpt lat="45.03708" lon="0.63891">
        <ele>213.07</ele>
        <time>2016-09-02T08:09:13Z</time>
      </trkpt>
      <trkpt lat="45.03699" lon="0.63869">
        <ele>212.59</ele>
        <time>2016-09-02T08:09:29Z</time>
      </trkpt>
      <trkpt lat="45.03693" lon="0.63851">
        <ele>212.11</ele>
        <time>2016-09-02T08:09:44Z</time>
      </trkpt>
      <trkpt lat="45.03688" lon="0.63836">
        <ele>211.15</ele>
        <time>2016-09-02T08:09:55Z</time>
      </trkpt>
      <trkpt lat="45.03681" lon="0.63816">
        <ele>209.7</ele>
        <time>2016-09-02T08:10:09Z</time>
      </trkpt>
      <trkpt lat="45.03677" lon="0.63797">
        <ele>207.78</ele>
        <time>2016-09-02T08:10:23Z</time>
      </trkpt>
      <trkpt lat="45.03677" lon="0.63776">
        <ele>206.82</ele>
        <time>2016-09-02T08:10:38Z</time>
      </trkpt>
      <trkpt lat="45.03677" lon="0.63754">
        <ele>204.9</ele>
        <time>2016-09-02T08:10:53Z</time>
      </trkpt>
      <trkpt lat="45.03679" lon="0.63727">
        <ele>203.94</ele>
        <time>2016-09-02T08:11:10Z</time>
      </trkpt>
      <trkpt lat="45.0368" lon="0.63716">
        <ele>203.46</ele>
        <time>2016-09-02T08:11:18Z</time>
      </trkpt>
      <trkpt lat="45.03678" lon="0.63701">
        <ele>202.98</ele>
        <time>2016-09-02T08:11:30Z</time>
      </trkpt>
      <trkpt lat="45.03673" lon="0.63687">
        <ele>202.49</ele>
        <time>2016-09-02T08:11:44Z</time>
      </trkpt>
      <trkpt lat="45.03666" lon="0.63669">
        <ele>202.01</ele>
        <time>2016-09-02T08:11:59Z</time>
      </trkpt>
      <trkpt lat="45.0366" lon="0.63649">
        <ele>201.53</ele>
        <time>2016-09-02T08:12:15Z</time>
      </trkpt>
      <trkpt lat="45.03654" lon="0.6363">
        <ele>200.09</ele>
        <time>2016-09-02T08:12:30Z</time>
      </trkpt>
      <trkpt lat="45.03648" lon="0.63612">
        <ele>197.69</ele>
        <time>2016-09-02T08:12:45Z</time>
      </trkpt>
      <trkpt lat="45.03641" lon="0.63597">
        <ele>195.77</ele>
        <time>2016-09-02T08:12:59Z</time>
      </trkpt>
      <trkpt lat="45.03639" lon="0.63591">
        <ele>195.28</ele>
        <time>2016-09-02T08:13:04Z</time>
      </trkpt>
      <trkpt lat="45.03638" lon="0.63587">
        <ele>194.8</ele>
        <time>2016-09-02T08:13:08Z</time>
      </trkpt>
      <trkpt lat="45.03635" lon="0.63578">
        <ele>193.84</ele>
        <time>2016-09-02T08:13:15Z</time>
      </trkpt>
      <trkpt lat="45.0363" lon="0.63558">
        <ele>191.44</ele>
        <time>2016-09-02T08:13:31Z</time>
      </trkpt>
      <trkpt lat="45.03629" lon="0.63557">
        <ele>191.44</ele>
        <time>2016-09-02T08:13:32Z</time>
      </trkpt>
      <trkpt lat="45.03626" lon="0.6355">
        <ele>190.48</ele>
        <time>2016-09-02T08:13:37Z</time>
      </trkpt>
      <trkpt lat="45.03619" lon="0.63525">
        <ele>188.56</ele>
        <time>2016-09-02T08:13:55Z</time>
      </trkpt>
      <trkpt lat="45.03619" lon="0.63506">
        <ele>187.59</ele>
        <time>2016-09-02T08:14:09Z</time>
      </trkpt>
      <trkpt lat="45.0362" lon="0.63502">
        <ele>187.59</ele>
        <time>2016-09-02T08:14:12Z</time>
      </trkpt>
      <trkpt lat="45.03626" lon="0.63495">
        <ele>187.11</ele>
        <time>2016-09-02T08:14:25Z</time>
      </trkpt>
      <trkpt lat="45.03632" lon="0.63488">
        <ele>186.63</ele>
        <time>2016-09-02T08:14:34Z</time>
      </trkpt>
      <trkpt lat="45.03647" lon="0.63474">
        <ele>186.15</ele>
        <time>2016-09-02T08:14:50Z</time>
      </trkpt>
      <trkpt lat="45.03654" lon="0.63468">
        <ele>185.67</ele>
        <time>2016-09-02T08:14:57Z</time>
      </trkpt>
      <trkpt lat="45.03663" lon="0.63457">
        <ele>185.19</ele>
        <time>2016-09-02T08:15:11Z</time>
      </trkpt>
      <trkpt lat="45.03672" lon="0.63444">
        <ele>184.71</ele>
        <time>2016-09-02T08:15:27Z</time>
      </trkpt>
      <trkpt lat="45.03675" lon="0.63442">
        <ele>184.71</ele>
        <time>2016-09-02T08:15:30Z</time>
      </trkpt>
      <trkpt lat="45.03688" lon="0.63425">
        <ele>184.23</ele>
        <time>2016-09-02T08:15:47Z</time>
      </trkpt>
      <trkpt lat="45.037" lon="0.63417">
        <ele>184.23</ele>
        <time>2016-09-02T08:16:01Z</time>
      </trkpt>
      <trkpt lat="45.0371" lon="0.63408">
        <ele>184.23</ele>
        <time>2016-09-02T08:16:18Z</time>
      </trkpt>
      <trkpt lat="45.03727" lon="0.63401">
        <ele>184.23</ele>
        <time>2016-09-02T08:16:33Z</time>
      </trkpt>
      <trkpt lat="45.03742" lon="0.63394">
        <ele>182.79</ele>
        <time>2016-09-02T08:16:47Z</time>
      </trkpt>
      <trkpt lat="45.03746" lon="0.63393">
        <ele>182.79</ele>
        <time>2016-09-02T08:16:50Z</time>
      </trkpt>
      <trkpt lat="45.03751" lon="0.63391">
        <ele>182.31</ele>
        <time>2016-09-02T08:16:55Z</time>
      </trkpt>
      <trkpt lat="45.03765" lon="0.6339">
        <ele>181.83</ele>
        <time>2016-09-02T08:17:05Z</time>
      </trkpt>
      <trkpt lat="45.03783" lon="0.63388">
        <ele>181.35</ele>
        <time>2016-09-02T08:17:22Z</time>
      </trkpt>
      <trkpt lat="45.03801" lon="0.63393">
        <ele>180.87</ele>
        <time>2016-09-02T08:17:38Z</time>
      </trkpt>
      <trkpt lat="45.03821" lon="0.63391">
        <ele>180.38</ele>
        <time>2016-09-02T08:17:55Z</time>
      </trkpt>
      <trkpt lat="45.03838" lon="0.63384">
        <ele>179.9</ele>
        <time>2016-09-02T08:18:11Z</time>
      </trkpt>
      <trkpt lat="45.03858" lon="0.63378">
        <ele>179.9</ele>
        <time>2016-09-02T08:18:29Z</time>
      </trkpt>
      <trkpt lat="45.0388" lon="0.63371">
        <ele>179.42</ele>
        <time>2016-09-02T08:18:46Z</time>
      </trkpt>
      <trkpt lat="45.03896" lon="0.63366">
        <ele>178.46</ele>
        <time>2016-09-02T08:19:02Z</time>
      </trkpt>
      <trkpt lat="45.03897" lon="0.63366">
        <ele>178.46</ele>
        <time>2016-09-02T08:19:03Z</time>
      </trkpt>
      <trkpt lat="45.03915" lon="0.63367">
        <ele>178.46</ele>
        <time>2016-09-02T08:19:21Z</time>
      </trkpt>
      <trkpt lat="45.0394" lon="0.63362">
        <ele>177.98</ele>
        <time>2016-09-02T08:19:39Z</time>
      </trkpt>
      <trkpt lat="45.03957" lon="0.63363">
        <ele>177.5</ele>
        <time>2016-09-02T08:19:57Z</time>
      </trkpt>
      <trkpt lat="45.03978" lon="0.63364">
        <ele>177.5</ele>
        <time>2016-09-02T08:20:13Z</time>
      </trkpt>
      <trkpt lat="45.03984" lon="0.63367">
        <ele>177.02</ele>
        <time>2016-09-02T08:20:36Z</time>
      </trkpt>
      <trkpt lat="45.03999" lon="0.63368">
        <ele>177.02</ele>
        <time>2016-09-02T08:20:52Z</time>
      </trkpt>
      <trkpt lat="45.04018" lon="0.63368">
        <ele>176.54</ele>
        <time>2016-09-02T08:21:10Z</time>
      </trkpt>
      <trkpt lat="45.04039" lon="0.63362">
        <ele>175.58</ele>
        <time>2016-09-02T08:21:26Z</time>
      </trkpt>
      <trkpt lat="45.04048" lon="0.63353">
        <ele>175.58</ele>
        <time>2016-09-02T08:21:37Z</time>
      </trkpt>
      <trkpt lat="45.04056" lon="0.63344">
        <ele>175.1</ele>
        <time>2016-09-02T08:21:47Z</time>
      </trkpt>
      <trkpt lat="45.04066" lon="0.63324">
        <ele>175.1</ele>
        <time>2016-09-02T08:22:03Z</time>
      </trkpt>
      <trkpt lat="45.04077" lon="0.63307">
        <ele>174.62</ele>
        <time>2016-09-02T08:22:17Z</time>
      </trkpt>
      <trkpt lat="45.04089" lon="0.63292">
        <ele>174.62</ele>
        <time>2016-09-02T08:22:28Z</time>
      </trkpt>
      <trkpt lat="45.04094" lon="0.63286">
        <ele>174.14</ele>
        <time>2016-09-02T08:22:32Z</time>
      </trkpt>
      <trkpt lat="45.04111" lon="0.63279">
        <ele>174.14</ele>
        <time>2016-09-02T08:22:48Z</time>
      </trkpt>
      <trkpt lat="45.04123" lon="0.63272">
        <ele>173.66</ele>
        <time>2016-09-02T08:22:59Z</time>
      </trkpt>
      <trkpt lat="45.0414" lon="0.63261">
        <ele>173.17</ele>
        <time>2016-09-02T08:23:14Z</time>
      </trkpt>
      <trkpt lat="45.04147" lon="0.63257">
        <ele>173.17</ele>
        <time>2016-09-02T08:23:23Z</time>
      </trkpt>
      <trkpt lat="45.04163" lon="0.63246">
        <ele>172.69</ele>
        <time>2016-09-02T08:23:40Z</time>
      </trkpt>
      <trkpt lat="45.04178" lon="0.63231">
        <ele>172.21</ele>
        <time>2016-09-02T08:23:57Z</time>
      </trkpt>
      <trkpt lat="45.04181" lon="0.63227">
        <ele>171.73</ele>
        <time>2016-09-02T08:24:01Z</time>
      </trkpt>
      <trkpt lat="45.04199" lon="0.63204">
        <ele>171.25</ele>
        <time>2016-09-02T08:24:16Z</time>
      </trkpt>
      <trkpt lat="45.04214" lon="0.63181">
        <ele>170.77</ele>
        <time>2016-09-02T08:24:34Z</time>
      </trkpt>
      <trkpt lat="45.04223" lon="0.63173">
        <ele>170.29</ele>
        <time>2016-09-02T08:24:44Z</time>
      </trkpt>
      <trkpt lat="45.04242" lon="0.63163">
        <ele>169.81</ele>
        <time>2016-09-02T08:25:02Z</time>
      </trkpt>
      <trkpt lat="45.04257" lon="0.63152">
        <ele>169.33</ele>
        <time>2016-09-02T08:25:14Z</time>
      </trkpt>
      <trkpt lat="45.04266" lon="0.63142">
        <ele>169.33</ele>
        <time>2016-09-02T08:25:22Z</time>
      </trkpt>
      <trkpt lat="45.04272" lon="0.63136">
        <ele>168.85</ele>
        <time>2016-09-02T08:25:28Z</time>
      </trkpt>
      <trkpt lat="45.04288" lon="0.63125">
        <ele>167.89</ele>
        <time>2016-09-02T08:25:42Z</time>
      </trkpt>
      <trkpt lat="45.04293" lon="0.6312">
        <ele>167.89</ele>
        <time>2016-09-02T08:25:47Z</time>
      </trkpt>
      <trkpt lat="45.04296" lon="0.63118">
        <ele>167.41</ele>
        <time>2016-09-02T08:25:49Z</time>
      </trkpt>
      <trkpt lat="45.04307" lon="0.63109">
        <ele>167.41</ele>
        <time>2016-09-02T08:25:59Z</time>
      </trkpt>
      <trkpt lat="45.04321" lon="0.63089">
        <ele>166.45</ele>
        <time>2016-09-02T08:26:15Z</time>
      </trkpt>
      <trkpt lat="45.04328" lon="0.63078">
        <ele>166.45</ele>
        <time>2016-09-02T08:26:27Z</time>
      </trkpt>
      <trkpt lat="45.0433" lon="0.6307">
        <ele>165.96</ele>
        <time>2016-09-02T08:26:50Z</time>
      </trkpt>
      <trkpt lat="45.04348" lon="0.63055">
        <ele>165.96</ele>
        <time>2016-09-02T08:27:07Z</time>
      </trkpt>
      <trkpt lat="45.04361" lon="0.63032">
        <ele>165.96</ele>
        <time>2016-09-02T08:27:25Z</time>
      </trkpt>
      <trkpt lat="45.04376" lon="0.63012">
        <ele>165.48</ele>
        <time>2016-09-02T08:27:40Z</time>
      </trkpt>
      <trkpt lat="45.0438" lon="0.63007">
        <ele>165</ele>
        <time>2016-09-02T08:27:45Z</time>
      </trkpt>
      <trkpt lat="45.04389" lon="0.62997">
        <ele>164.52</ele>
        <time>2016-09-02T08:27:59Z</time>
      </trkpt>
      <trkpt lat="45.04392" lon="0.62991">
        <ele>164.04</ele>
        <time>2016-09-02T08:28:03Z</time>
      </trkpt>
      <trkpt lat="45.04401" lon="0.6297">
        <ele>164.04</ele>
        <time>2016-09-02T08:28:18Z</time>
      </trkpt>
      <trkpt lat="45.04412" lon="0.62952">
        <ele>163.56</ele>
        <time>2016-09-02T08:28:32Z</time>
      </trkpt>
      <trkpt lat="45.04419" lon="0.62936">
        <ele>163.56</ele>
        <time>2016-09-02T08:28:45Z</time>
      </trkpt>
      <trkpt lat="45.04427" lon="0.6292">
        <ele>163.56</ele>
        <time>2016-09-02T08:28:59Z</time>
      </trkpt>
      <trkpt lat="45.04428" lon="0.62919">
        <ele>163.56</ele>
        <time>2016-09-02T08:29:00Z</time>
      </trkpt>
      <trkpt lat="45.04434" lon="0.62909">
        <ele>163.56</ele>
        <time>2016-09-02T08:29:13Z</time>
      </trkpt>
      <trkpt lat="45.04438" lon="0.62908">
        <ele>163.56</ele>
        <time>2016-09-02T08:29:29Z</time>
      </trkpt>
      <trkpt lat="45.04448" lon="0.62915">
        <ele>164.52</ele>
        <time>2016-09-02T08:29:46Z</time>
      </trkpt>
      <trkpt lat="45.04449" lon="0.62917">
        <ele>164.52</ele>
        <time>2016-09-02T08:30:04Z</time>
      </trkpt>
      <trkpt lat="45.04452" lon="0.62917">
        <ele>164.52</ele>
        <time>2016-09-02T08:30:18Z</time>
      </trkpt>
      <trkpt lat="45.04468" lon="0.62927">
        <ele>165.48</ele>
        <time>2016-09-02T08:30:38Z</time>
      </trkpt>
      <trkpt lat="45.04485" lon="0.62929">
        <ele>166.93</ele>
        <time>2016-09-02T08:30:57Z</time>
      </trkpt>
      <trkpt lat="45.04503" lon="0.62937">
        <ele>169.33</ele>
        <time>2016-09-02T08:31:16Z</time>
      </trkpt>
      <trkpt lat="45.04516" lon="0.62943">
        <ele>170.77</ele>
        <time>2016-09-02T08:31:31Z</time>
      </trkpt>
      <trkpt lat="45.04529" lon="0.62949">
        <ele>172.21</ele>
        <time>2016-09-02T08:31:45Z</time>
      </trkpt>
      <trkpt lat="45.04544" lon="0.62956">
        <ele>173.66</ele>
        <time>2016-09-02T08:32:00Z</time>
      </trkpt>
      <trkpt lat="45.04559" lon="0.62963">
        <ele>174.62</ele>
        <time>2016-09-02T08:32:16Z</time>
      </trkpt>
      <trkpt lat="45.04572" lon="0.6297">
        <ele>176.06</ele>
        <time>2016-09-02T08:32:29Z</time>
      </trkpt>
      <trkpt lat="45.04587" lon="0.62977">
        <ele>177.5</ele>
        <time>2016-09-02T08:32:46Z</time>
      </trkpt>
      <trkpt lat="45.04602" lon="0.62982">
        <ele>178.94</ele>
        <time>2016-09-02T08:33:02Z</time>
      </trkpt>
      <trkpt lat="45.04617" lon="0.6299">
        <ele>179.9</ele>
        <time>2016-09-02T08:33:18Z</time>
      </trkpt>
      <trkpt lat="45.0463" lon="0.62997">
        <ele>181.35</ele>
        <time>2016-09-02T08:33:33Z</time>
      </trkpt>
      <trkpt lat="45.04643" lon="0.63002">
        <ele>182.79</ele>
        <time>2016-09-02T08:33:48Z</time>
      </trkpt>
      <trkpt lat="45.04659" lon="0.63005">
        <ele>184.23</ele>
        <time>2016-09-02T08:34:05Z</time>
      </trkpt>
      <trkpt lat="45.04674" lon="0.63005">
        <ele>185.67</ele>
        <time>2016-09-02T08:34:20Z</time>
      </trkpt>
      <trkpt lat="45.04691" lon="0.63008">
        <ele>186.63</ele>
        <time>2016-09-02T08:34:36Z</time>
      </trkpt>
      <trkpt lat="45.04704" lon="0.63009">
        <ele>188.08</ele>
        <time>2016-09-02T08:34:52Z</time>
      </trkpt>
      <trkpt lat="45.04721" lon="0.63011">
        <ele>189.04</ele>
        <time>2016-09-02T08:35:08Z</time>
      </trkpt>
      <trkpt lat="45.0474" lon="0.63015">
        <ele>190.48</ele>
        <time>2016-09-02T08:35:26Z</time>
      </trkpt>
      <trkpt lat="45.04759" lon="0.63015">
        <ele>191.44</ele>
        <time>2016-09-02T08:35:42Z</time>
      </trkpt>
      <trkpt lat="45.04777" lon="0.63029">
        <ele>192.4</ele>
        <time>2016-09-02T08:35:58Z</time>
      </trkpt>
      <trkpt lat="45.04789" lon="0.63045">
        <ele>192.88</ele>
        <time>2016-09-02T08:36:12Z</time>
      </trkpt>
      <trkpt lat="45.04803" lon="0.63062">
        <ele>193.84</ele>
        <time>2016-09-02T08:36:28Z</time>
      </trkpt>
      <trkpt lat="45.04813" lon="0.63068">
        <ele>194.32</ele>
        <time>2016-09-02T08:36:41Z</time>
      </trkpt>
      <trkpt lat="45.04829" lon="0.63074">
        <ele>195.28</ele>
        <time>2016-09-02T08:36:59Z</time>
      </trkpt>
      <trkpt lat="45.04837" lon="0.63075">
        <ele>195.77</ele>
        <time>2016-09-02T08:37:06Z</time>
      </trkpt>
      <trkpt lat="45.04857" lon="0.63074">
        <ele>196.73</ele>
        <time>2016-09-02T08:37:24Z</time>
      </trkpt>
      <trkpt lat="45.0486" lon="0.63074">
        <ele>197.21</ele>
        <time>2016-09-02T08:37:27Z</time>
      </trkpt>
      <trkpt lat="45.04877" lon="0.63074">
        <ele>197.69</ele>
        <time>2016-09-02T08:37:43Z</time>
      </trkpt>
      <trkpt lat="45.04894" lon="0.63074">
        <ele>198.65</ele>
        <time>2016-09-02T08:37:58Z</time>
      </trkpt>
      <trkpt lat="45.04913" lon="0.63071">
        <ele>199.61</ele>
        <time>2016-09-02T08:38:14Z</time>
      </trkpt>
      <trkpt lat="45.0493" lon="0.63068">
        <ele>200.09</ele>
        <time>2016-09-02T08:38:29Z</time>
      </trkpt>
      <trkpt lat="45.0495" lon="0.63067">
        <ele>201.05</ele>
        <time>2016-09-02T08:38:45Z</time>
      </trkpt>
      <trkpt lat="45.04967" lon="0.63071">
        <ele>202.01</ele>
        <time>2016-09-02T08:39:00Z</time>
      </trkpt>
      <trkpt lat="45.05015" lon="0.63116">
        <ele>203.1</ele>
      </trkpt>
      <trkpt lat="45.05027" lon="0.63138">
        <ele>202.6</ele>
      </trkpt>
      <trkpt lat="45.05044" lon="0.63151">
        <ele>202.3</ele>
      </trkpt>
      <trkpt lat="45.05084" lon="0.63154">
        <ele>197.69</ele>
        <time>2016-09-02T08:55:05Z</time>
      </trkpt>
      <trkpt lat="45.05105" lon="0.63155">
        <ele>195.28</ele>
        <time>2016-09-02T08:55:24Z</time>
      </trkpt>
      <trkpt lat="45.05124" lon="0.63149">
        <ele>193.36</ele>
        <time>2016-09-02T08:55:40Z</time>
      </trkpt>
      <trkpt lat="45.05141" lon="0.63149">
        <ele>192.4</ele>
        <time>2016-09-02T08:55:56Z</time>
      </trkpt>
      <trkpt lat="45.05158" lon="0.6315">
        <ele>190</ele>
        <time>2016-09-02T08:56:15Z</time>
      </trkpt>
      <trkpt lat="45.05162" lon="0.63139">
        <ele>190</ele>
        <time>2016-09-02T08:56:27Z</time>
      </trkpt>
      <trkpt lat="45.05176" lon="0.6313">
        <ele>189.52</ele>
        <time>2016-09-02T08:56:43Z</time>
      </trkpt>
      <trkpt lat="45.05183" lon="0.63126">
        <ele>189.04</ele>
        <time>2016-09-02T08:57:04Z</time>
      </trkpt>
      <trkpt lat="45.05197" lon="0.63121">
        <ele>188.08</ele>
        <time>2016-09-02T08:57:20Z</time>
      </trkpt>
      <trkpt lat="45.05214" lon="0.63114">
        <ele>187.11</ele>
        <time>2016-09-02T08:57:38Z</time>
      </trkpt>
      <trkpt lat="45.05226" lon="0.63103">
        <ele>186.15</ele>
        <time>2016-09-02T08:57:52Z</time>
      </trkpt>
      <trkpt lat="45.05227" lon="0.63103">
        <ele>186.15</ele>
        <time>2016-09-02T08:57:53Z</time>
      </trkpt>
      <trkpt lat="45.0523" lon="0.631">
        <ele>186.15</ele>
        <time>2016-09-02T08:57:58Z</time>
      </trkpt>
      <trkpt lat="45.05244" lon="0.63092">
        <ele>184.23</ele>
        <time>2016-09-02T08:58:14Z</time>
      </trkpt>
      <trkpt lat="45.05255" lon="0.63094">
        <ele>184.71</ele>
        <time>2016-09-02T08:58:25Z</time>
      </trkpt>
      <trkpt lat="45.05274" lon="0.63098">
        <ele>184.23</ele>
        <time>2016-09-02T08:58:39Z</time>
      </trkpt>
      <trkpt lat="45.05279" lon="0.63102">
        <ele>183.75</ele>
        <time>2016-09-02T08:58:44Z</time>
      </trkpt>
      <trkpt lat="45.05288" lon="0.63106">
        <ele>183.75</ele>
        <time>2016-09-02T08:58:51Z</time>
      </trkpt>
      <trkpt lat="45.05303" lon="0.6311">
        <ele>182.79</ele>
        <time>2016-09-02T08:59:03Z</time>
      </trkpt>
      <trkpt lat="45.05321" lon="0.6311">
        <ele>182.31</ele>
        <time>2016-09-02T08:59:20Z</time>
      </trkpt>
      <trkpt lat="45.05342" lon="0.63112">
        <ele>181.83</ele>
        <time>2016-09-02T08:59:39Z</time>
      </trkpt>
      <trkpt lat="45.05358" lon="0.6311">
        <ele>180.38</ele>
        <time>2016-09-02T08:59:55Z</time>
      </trkpt>
      <trkpt lat="45.0537" lon="0.63116">
        <ele>177.98</ele>
        <time>2016-09-02T09:00:08Z</time>
      </trkpt>
      <trkpt lat="45.05379" lon="0.63125">
        <ele>175.58</ele>
        <time>2016-09-02T09:00:17Z</time>
      </trkpt>
      <trkpt lat="45.05393" lon="0.63135">
        <ele>174.14</ele>
        <time>2016-09-02T09:00:27Z</time>
      </trkpt>
      <trkpt lat="45.05401" lon="0.63143">
        <ele>173.17</ele>
        <time>2016-09-02T09:00:35Z</time>
      </trkpt>
      <trkpt lat="45.05419" lon="0.63156">
        <ele>172.69</ele>
        <time>2016-09-02T09:00:53Z</time>
      </trkpt>
      <trkpt lat="45.0542" lon="0.63157">
        <ele>172.69</ele>
        <time>2016-09-02T09:00:54Z</time>
      </trkpt>
      <trkpt lat="45.05437" lon="0.63169">
        <ele>172.21</ele>
        <time>2016-09-02T09:01:10Z</time>
      </trkpt>
      <trkpt lat="45.05437" lon="0.63169">
        <ele>172.21</ele>
        <time>2016-09-02T09:01:11Z</time>
      </trkpt>
      <trkpt lat="45.05455" lon="0.63191">
        <ele>172.69</ele>
        <time>2016-09-02T09:01:27Z</time>
      </trkpt>
      <trkpt lat="45.0546" lon="0.63198">
        <ele>174.14</ele>
        <time>2016-09-02T09:01:33Z</time>
      </trkpt>
      <trkpt lat="45.05462" lon="0.632">
        <ele>174.62</ele>
        <time>2016-09-02T09:01:35Z</time>
      </trkpt>
      <trkpt lat="45.05479" lon="0.63211">
        <ele>176.54</ele>
        <time>2016-09-02T09:01:53Z</time>
      </trkpt>
      <trkpt lat="45.05489" lon="0.63222">
        <ele>175.1</ele>
        <time>2016-09-02T09:02:04Z</time>
      </trkpt>
      <trkpt lat="45.05489" lon="0.63224">
        <ele>175.1</ele>
        <time>2016-09-02T09:02:05Z</time>
      </trkpt>
      <trkpt lat="45.05504" lon="0.6325">
        <ele>172.21</ele>
        <time>2016-09-02T09:02:22Z</time>
      </trkpt>
      <trkpt lat="45.05515" lon="0.63267">
        <ele>171.25</ele>
        <time>2016-09-02T09:02:36Z</time>
      </trkpt>
      <trkpt lat="45.05525" lon="0.63271">
        <ele>170.29</ele>
        <time>2016-09-02T09:02:44Z</time>
      </trkpt>
      <trkpt lat="45.05539" lon="0.63282">
        <ele>167.41</ele>
        <time>2016-09-02T09:03:03Z</time>
      </trkpt>
      <trkpt lat="45.05544" lon="0.63284">
        <ele>166.93</ele>
        <time>2016-09-02T09:03:21Z</time>
      </trkpt>
      <trkpt lat="45.05553" lon="0.63288">
        <ele>165.96</ele>
        <time>2016-09-02T09:03:39Z</time>
      </trkpt>
      <trkpt lat="45.05567" lon="0.63295">
        <ele>163.08</ele>
        <time>2016-09-02T09:03:56Z</time>
      </trkpt>
      <trkpt lat="45.05578" lon="0.63303">
        <ele>161.16</ele>
        <time>2016-09-02T09:04:11Z</time>
      </trkpt>
      <trkpt lat="45.05583" lon="0.63309">
        <ele>159.72</ele>
        <time>2016-09-02T09:04:17Z</time>
      </trkpt>
      <trkpt lat="45.05596" lon="0.63319">
        <ele>158.27</ele>
        <time>2016-09-02T09:04:29Z</time>
      </trkpt>
      <trkpt lat="45.05601" lon="0.63323">
        <ele>156.83</ele>
        <time>2016-09-02T09:04:37Z</time>
      </trkpt>
      <trkpt lat="45.05604" lon="0.63323">
        <ele>156.35</ele>
        <time>2016-09-02T09:04:41Z</time>
      </trkpt>
      <trkpt lat="45.05619" lon="0.63322">
        <ele>154.43</ele>
        <time>2016-09-02T09:04:55Z</time>
      </trkpt>
      <trkpt lat="45.05626" lon="0.63308">
        <ele>155.87</ele>
        <time>2016-09-02T09:05:07Z</time>
      </trkpt>
      <trkpt lat="45.05628" lon="0.63303">
        <ele>156.35</ele>
        <time>2016-09-02T09:05:11Z</time>
      </trkpt>
      <trkpt lat="45.05629" lon="0.63299">
        <ele>156.35</ele>
        <time>2016-09-02T09:05:14Z</time>
      </trkpt>
      <trkpt lat="45.05634" lon="0.63286">
        <ele>157.79</ele>
        <time>2016-09-02T09:05:27Z</time>
      </trkpt>
      <trkpt lat="45.05641" lon="0.63265">
        <ele>159.24</ele>
        <time>2016-09-02T09:05:45Z</time>
      </trkpt>
      <trkpt lat="45.05647" lon="0.6325">
        <ele>161.16</ele>
        <time>2016-09-02T09:06:00Z</time>
      </trkpt>
      <trkpt lat="45.05654" lon="0.6323">
        <ele>162.6</ele>
        <time>2016-09-02T09:06:14Z</time>
      </trkpt>
      <trkpt lat="45.05664" lon="0.63209">
        <ele>164.04</ele>
        <time>2016-09-02T09:06:31Z</time>
      </trkpt>
      <trkpt lat="45.05667" lon="0.63189">
        <ele>165.96</ele>
        <time>2016-09-02T09:06:47Z</time>
      </trkpt>
      <trkpt lat="45.05668" lon="0.63171">
        <ele>167.41</ele>
        <time>2016-09-02T09:07:01Z</time>
      </trkpt>
      <trkpt lat="45.05669" lon="0.6316">
        <ele>168.37</ele>
        <time>2016-09-02T09:07:10Z</time>
      </trkpt>
      <trkpt lat="45.05669" lon="0.63136">
        <ele>170.77</ele>
        <time>2016-09-02T09:07:26Z</time>
      </trkpt>
      <trkpt lat="45.05666" lon="0.6312">
        <ele>172.21</ele>
        <time>2016-09-02T09:07:41Z</time>
      </trkpt>
      <trkpt lat="45.05661" lon="0.63099">
        <ele>174.14</ele>
        <time>2016-09-02T09:07:58Z</time>
      </trkpt>
      <trkpt lat="45.05657" lon="0.63085">
        <ele>175.1</ele>
        <time>2016-09-02T09:08:08Z</time>
      </trkpt>
      <trkpt lat="45.05659" lon="0.63062">
        <ele>177.02</ele>
        <time>2016-09-02T09:08:23Z</time>
      </trkpt>
      <trkpt lat="45.05663" lon="0.63053">
        <ele>177.98</ele>
        <time>2016-09-02T09:08:31Z</time>
      </trkpt>
      <trkpt lat="45.05672" lon="0.63032">
        <ele>179.9</ele>
        <time>2016-09-02T09:08:48Z</time>
      </trkpt>
      <trkpt lat="45.05674" lon="0.63028">
        <ele>180.38</ele>
        <time>2016-09-02T09:08:52Z</time>
      </trkpt>
      <trkpt lat="45.05685" lon="0.6301">
        <ele>182.31</ele>
        <time>2016-09-02T09:09:09Z</time>
      </trkpt>
      <trkpt lat="45.0569" lon="0.62997">
        <ele>184.23</ele>
        <time>2016-09-02T09:09:25Z</time>
      </trkpt>
      <trkpt lat="45.05695" lon="0.62977">
        <ele>186.15</ele>
        <time>2016-09-02T09:09:41Z</time>
      </trkpt>
      <trkpt lat="45.05691" lon="0.62965">
        <ele>187.59</ele>
        <time>2016-09-02T09:09:54Z</time>
      </trkpt>
      <trkpt lat="45.0569" lon="0.62962">
        <ele>188.08</ele>
        <time>2016-09-02T09:09:57Z</time>
      </trkpt>
      <trkpt lat="45.05684" lon="0.62955">
        <ele>189.04</ele>
        <time>2016-09-02T09:10:05Z</time>
      </trkpt>
      <trkpt lat="45.05674" lon="0.62938">
        <ele>190.96</ele>
        <time>2016-09-02T09:10:21Z</time>
      </trkpt>
      <trkpt lat="45.0567" lon="0.62917">
        <ele>191.92</ele>
        <time>2016-09-02T09:10:36Z</time>
      </trkpt>
      <trkpt lat="45.05669" lon="0.6289">
        <ele>193.84</ele>
        <time>2016-09-02T09:10:54Z</time>
      </trkpt>
      <trkpt lat="45.05671" lon="0.62886">
        <ele>193.84</ele>
        <time>2016-09-02T09:10:58Z</time>
      </trkpt>
      <trkpt lat="45.05678" lon="0.62876">
        <ele>195.28</ele>
        <time>2016-09-02T09:11:14Z</time>
      </trkpt>
      <trkpt lat="45.05681" lon="0.62878">
        <ele>195.28</ele>
        <time>2016-09-02T09:11:26Z</time>
      </trkpt>
      <trkpt lat="45.05687" lon="0.62876">
        <ele>195.28</ele>
        <time>2016-09-02T09:11:31Z</time>
      </trkpt>
      <trkpt lat="45.05711" lon="0.62863">
        <ele>196.25</ele>
        <time>2016-09-02T09:11:53Z</time>
      </trkpt>
      <trkpt lat="45.05727" lon="0.62851">
        <ele>197.69</ele>
        <time>2016-09-02T09:12:07Z</time>
      </trkpt>
      <trkpt lat="45.05745" lon="0.62832">
        <ele>198.65</ele>
        <time>2016-09-02T09:12:26Z</time>
      </trkpt>
      <trkpt lat="45.05759" lon="0.62814">
        <ele>198.65</ele>
        <time>2016-09-02T09:12:41Z</time>
      </trkpt>
      <trkpt lat="45.05775" lon="0.62793">
        <ele>199.13</ele>
        <time>2016-09-02T09:12:59Z</time>
      </trkpt>
      <trkpt lat="45.05798" lon="0.6278">
        <ele>200.09</ele>
        <time>2016-09-02T09:13:17Z</time>
      </trkpt>
      <trkpt lat="45.0582" lon="0.62768">
        <ele>200.57</ele>
        <time>2016-09-02T09:13:35Z</time>
      </trkpt>
      <trkpt lat="45.05838" lon="0.62759">
        <ele>200.57</ele>
        <time>2016-09-02T09:13:51Z</time>
      </trkpt>
      <trkpt lat="45.0586" lon="0.62742">
        <ele>201.05</ele>
        <time>2016-09-02T09:14:11Z</time>
      </trkpt>
      <trkpt lat="45.05881" lon="0.62724">
        <ele>201.53</ele>
        <time>2016-09-02T09:14:30Z</time>
      </trkpt>
      <trkpt lat="45.05889" lon="0.62717">
        <ele>202.01</ele>
        <time>2016-09-02T09:14:37Z</time>
      </trkpt>
      <trkpt lat="45.05897" lon="0.62727">
        <ele>200.57</ele>
        <time>2016-09-02T09:14:48Z</time>
      </trkpt>
      <trkpt lat="45.05901" lon="0.62758">
        <ele>198.65</ele>
        <time>2016-09-02T09:15:07Z</time>
      </trkpt>
      <trkpt lat="45.05901" lon="0.62773">
        <ele>197.69</ele>
        <time>2016-09-02T09:15:20Z</time>
      </trkpt>
      <trkpt lat="45.05896" lon="0.62791">
        <ele>196.25</ele>
        <time>2016-09-02T09:15:35Z</time>
      </trkpt>
      <trkpt lat="45.05889" lon="0.62817">
        <ele>194.32</ele>
        <time>2016-09-02T09:15:52Z</time>
      </trkpt>
      <trkpt lat="45.05879" lon="0.62837">
        <ele>193.36</ele>
        <time>2016-09-02T09:16:07Z</time>
      </trkpt>
      <trkpt lat="45.05869" lon="0.62863">
        <ele>191.44</ele>
        <time>2016-09-02T09:16:22Z</time>
      </trkpt>
      <trkpt lat="45.05863" lon="0.62886">
        <ele>190</ele>
        <time>2016-09-02T09:16:38Z</time>
      </trkpt>
      <trkpt lat="45.05855" lon="0.62907">
        <ele>188.08</ele>
        <time>2016-09-02T09:16:52Z</time>
      </trkpt>
      <trkpt lat="45.05851" lon="0.62919">
        <ele>186.15</ele>
        <time>2016-09-02T09:17:01Z</time>
      </trkpt>
      <trkpt lat="45.0585" lon="0.62925">
        <ele>185.67</ele>
        <time>2016-09-02T09:17:05Z</time>
      </trkpt>
      <trkpt lat="45.05841" lon="0.62948">
        <ele>183.27</ele>
        <time>2016-09-02T09:17:22Z</time>
      </trkpt>
      <trkpt lat="45.05831" lon="0.62972">
        <ele>180.38</ele>
        <time>2016-09-02T09:17:40Z</time>
      </trkpt>
      <trkpt lat="45.05816" lon="0.62987">
        <ele>178.94</ele>
        <time>2016-09-02T09:17:55Z</time>
      </trkpt>
      <trkpt lat="45.05813" lon="0.62989">
        <ele>178.94</ele>
        <time>2016-09-02T09:17:58Z</time>
      </trkpt>
      <trkpt lat="45.05807" lon="0.62993">
        <ele>178.46</ele>
        <time>2016-09-02T09:18:03Z</time>
      </trkpt>
      <trkpt lat="45.05794" lon="0.63001">
        <ele>177.98</ele>
        <time>2016-09-02T09:18:15Z</time>
      </trkpt>
      <trkpt lat="45.05784" lon="0.63007">
        <ele>177.02</ele>
        <time>2016-09-02T09:18:24Z</time>
      </trkpt>
      <trkpt lat="45.05765" lon="0.63022">
        <ele>176.54</ele>
        <time>2016-09-02T09:18:41Z</time>
      </trkpt>
      <trkpt lat="45.0575" lon="0.63029">
        <ele>175.58</ele>
        <time>2016-09-02T09:18:53Z</time>
      </trkpt>
      <trkpt lat="45.05737" lon="0.63043">
        <ele>172.21</ele>
        <time>2016-09-02T09:19:10Z</time>
      </trkpt>
      <trkpt lat="45.05734" lon="0.63046">
        <ele>171.73</ele>
        <time>2016-09-02T09:19:13Z</time>
      </trkpt>
      <trkpt lat="45.05721" lon="0.63057">
        <ele>168.85</ele>
        <time>2016-09-02T09:19:28Z</time>
      </trkpt>
      <trkpt lat="45.05712" lon="0.63083">
        <ele>165.96</ele>
        <time>2016-09-02T09:19:47Z</time>
      </trkpt>
      <trkpt lat="45.05712" lon="0.6309">
        <ele>165.48</ele>
        <time>2016-09-02T09:19:51Z</time>
      </trkpt>
      <trkpt lat="45.05713" lon="0.63111">
        <ele>162.6</ele>
        <time>2016-09-02T09:20:06Z</time>
      </trkpt>
      <trkpt lat="45.0571" lon="0.63133">
        <ele>160.68</ele>
        <time>2016-09-02T09:20:20Z</time>
      </trkpt>
      <trkpt lat="45.05707" lon="0.6316">
        <ele>159.24</ele>
        <time>2016-09-02T09:20:35Z</time>
      </trkpt>
      <trkpt lat="45.05706" lon="0.63176">
        <ele>157.31</ele>
        <time>2016-09-02T09:20:49Z</time>
      </trkpt>
      <trkpt lat="45.05704" lon="0.63187">
        <ele>156.35</ele>
        <time>2016-09-02T09:20:56Z</time>
      </trkpt>
      <trkpt lat="45.05704" lon="0.63212">
        <ele>154.43</ele>
        <time>2016-09-02T09:21:12Z</time>
      </trkpt>
      <trkpt lat="45.0571" lon="0.63211">
        <ele>152.03</ele>
        <time>2016-09-02T09:21:25Z</time>
      </trkpt>
      <trkpt lat="45.05712" lon="0.63209">
        <ele>152.03</ele>
        <time>2016-09-02T09:21:27Z</time>
      </trkpt>
      <trkpt lat="45.0572" lon="0.63211">
        <ele>151.06</ele>
        <time>2016-09-02T09:21:32Z</time>
      </trkpt>
      <trkpt lat="45.05726" lon="0.63234">
        <ele>148.66</ele>
        <time>2016-09-02T09:21:48Z</time>
      </trkpt>
      <trkpt lat="45.05727" lon="0.63238">
        <ele>148.18</ele>
        <time>2016-09-02T09:21:51Z</time>
      </trkpt>
      <trkpt lat="45.05728" lon="0.63264">
        <ele>145.3</ele>
        <time>2016-09-02T09:22:06Z</time>
      </trkpt>
      <trkpt lat="45.05727" lon="0.63289">
        <ele>143.37</ele>
        <time>2016-09-02T09:22:22Z</time>
      </trkpt>
      <trkpt lat="45.05726" lon="0.6331">
        <ele>142.41</ele>
        <time>2016-09-02T09:22:36Z</time>
      </trkpt>
      <trkpt lat="45.05726" lon="0.63321">
        <ele>141.45</ele>
        <time>2016-09-02T09:22:44Z</time>
      </trkpt>
      <trkpt lat="45.05724" lon="0.63332">
        <ele>140.49</ele>
        <time>2016-09-02T09:22:56Z</time>
      </trkpt>
      <trkpt lat="45.05723" lon="0.63352">
        <ele>139.05</ele>
        <time>2016-09-02T09:23:08Z</time>
      </trkpt>
      <trkpt lat="45.05724" lon="0.63385">
        <ele>137.13</ele>
        <time>2016-09-02T09:23:26Z</time>
      </trkpt>
      <trkpt lat="45.05726" lon="0.634">
        <ele>136.16</ele>
        <time>2016-09-02T09:23:34Z</time>
      </trkpt>
      <trkpt lat="45.05724" lon="0.63414">
        <ele>135.68</ele>
        <time>2016-09-02T09:23:43Z</time>
      </trkpt>
      <trkpt lat="45.05718" lon="0.63432">
        <ele>134.24</ele>
        <time>2016-09-02T09:23:59Z</time>
      </trkpt>
      <trkpt lat="45.05717" lon="0.63434">
        <ele>134.24</ele>
        <time>2016-09-02T09:24:01Z</time>
      </trkpt>
      <trkpt lat="45.05702" lon="0.63458">
        <ele>132.32</ele>
        <time>2016-09-02T09:24:19Z</time>
      </trkpt>
      <trkpt lat="45.05697" lon="0.63477">
        <ele>131.36</ele>
        <time>2016-09-02T09:24:33Z</time>
      </trkpt>
      <trkpt lat="45.05696" lon="0.63483">
        <ele>131.36</ele>
        <time>2016-09-02T09:24:37Z</time>
      </trkpt>
      <trkpt lat="45.05694" lon="0.63492">
        <ele>130.88</ele>
        <time>2016-09-02T09:24:42Z</time>
      </trkpt>
      <trkpt lat="45.05687" lon="0.6352">
        <ele>129.92</ele>
        <time>2016-09-02T09:25:00Z</time>
      </trkpt>
      <trkpt lat="45.05679" lon="0.63537">
        <ele>128.47</ele>
        <time>2016-09-02T09:25:15Z</time>
      </trkpt>
      <trkpt lat="45.05665" lon="0.63561">
        <ele>127.99</ele>
        <time>2016-09-02T09:25:33Z</time>
      </trkpt>
      <trkpt lat="45.05646" lon="0.63574">
        <ele>126.55</ele>
        <time>2016-09-02T09:25:50Z</time>
      </trkpt>
      <trkpt lat="45.05635" lon="0.63579">
        <ele>126.07</ele>
        <time>2016-09-02T09:26:00Z</time>
      </trkpt>
      <trkpt lat="45.05616" lon="0.63583">
        <ele>125.11</ele>
        <time>2016-09-02T09:26:14Z</time>
      </trkpt>
      <trkpt lat="45.05608" lon="0.63594">
        <ele>124.15</ele>
        <time>2016-09-02T09:26:26Z</time>
      </trkpt>
      <trkpt lat="45.05608" lon="0.63596">
        <ele>124.15</ele>
        <time>2016-09-02T09:26:27Z</time>
      </trkpt>
      <trkpt lat="45.0561" lon="0.63604">
        <ele>124.15</ele>
        <time>2016-09-02T09:26:32Z</time>
      </trkpt>
      <trkpt lat="45.05614" lon="0.63638">
        <ele>122.71</ele>
        <time>2016-09-02T09:26:53Z</time>
      </trkpt>
      <trkpt lat="45.05617" lon="0.63653">
        <ele>122.22</ele>
        <time>2016-09-02T09:27:02Z</time>
      </trkpt>
      <trkpt lat="45.05618" lon="0.63673">
        <ele>121.74</ele>
        <time>2016-09-02T09:27:15Z</time>
      </trkpt>
      <trkpt lat="45.05618" lon="0.63684">
        <ele>121.74</ele>
        <time>2016-09-02T09:27:22Z</time>
      </trkpt>
      <trkpt lat="45.05625" lon="0.63721">
        <ele>120.3</ele>
        <time>2016-09-02T09:27:43Z</time>
      </trkpt>
      <trkpt lat="45.05625" lon="0.63723">
        <ele>120.3</ele>
        <time>2016-09-02T09:27:44Z</time>
      </trkpt>
      <trkpt lat="45.0563" lon="0.63741">
        <ele>119.34</ele>
        <time>2016-09-02T09:27:56Z</time>
      </trkpt>
      <trkpt lat="45.05643" lon="0.63773">
        <ele>118.38</ele>
        <time>2016-09-02T09:28:17Z</time>
      </trkpt>
      <trkpt lat="45.05658" lon="0.63806">
        <ele>117.9</ele>
        <time>2016-09-02T09:28:39Z</time>
      </trkpt>
      <trkpt lat="45.05673" lon="0.63833">
        <ele>116.46</ele>
        <time>2016-09-02T09:28:58Z</time>
      </trkpt>
      <trkpt lat="45.05687" lon="0.63858">
        <ele>115.98</ele>
        <time>2016-09-02T09:29:16Z</time>
      </trkpt>
      <trkpt lat="45.05687" lon="0.6386">
        <ele>115.98</ele>
        <time>2016-09-02T09:29:17Z</time>
      </trkpt>
      <trkpt lat="45.05695" lon="0.63884">
        <ele>114.53</ele>
        <time>2016-09-02T09:29:34Z</time>
      </trkpt>
      <trkpt lat="45.05702" lon="0.63912">
        <ele>113.57</ele>
        <time>2016-09-02T09:29:52Z</time>
      </trkpt>
      <trkpt lat="45.05702" lon="0.63935">
        <ele>112.13</ele>
        <time>2016-09-02T09:30:06Z</time>
      </trkpt>
      <trkpt lat="45.05703" lon="0.63966">
        <ele>111.17</ele>
        <time>2016-09-02T09:30:24Z</time>
      </trkpt>
      <trkpt lat="45.05703" lon="0.63996">
        <ele>109.25</ele>
        <time>2016-09-02T09:30:42Z</time>
      </trkpt>
      <trkpt lat="45.05696" lon="0.64025">
        <ele>107.81</ele>
        <time>2016-09-02T09:31:00Z</time>
      </trkpt>
      <trkpt lat="45.05682" lon="0.64058">
        <ele>106.84</ele>
        <time>2016-09-02T09:31:21Z</time>
      </trkpt>
      <trkpt lat="45.05666" lon="0.6409">
        <ele>106.36</ele>
        <time>2016-09-02T09:31:42Z</time>
      </trkpt>
      <trkpt lat="45.05658" lon="0.64118">
        <ele>105.88</ele>
        <time>2016-09-02T09:32:01Z</time>
      </trkpt>
      <trkpt lat="45.0565" lon="0.64147">
        <ele>105.88</ele>
        <time>2016-09-02T09:32:21Z</time>
      </trkpt>
      <trkpt lat="45.05644" lon="0.64176">
        <ele>105.88</ele>
        <time>2016-09-02T09:32:40Z</time>
      </trkpt>
      <trkpt lat="45.05638" lon="0.64209">
        <ele>105.88</ele>
        <time>2016-09-02T09:32:59Z</time>
      </trkpt>
      <trkpt lat="45.0563" lon="0.64242">
        <ele>105.4</ele>
        <time>2016-09-02T09:33:20Z</time>
      </trkpt>
      <trkpt lat="45.05619" lon="0.64281">
        <ele>105.4</ele>
        <time>2016-09-02T09:33:43Z</time>
      </trkpt>
      <trkpt lat="45.05606" lon="0.6431">
        <ele>105.4</ele>
        <time>2016-09-02T09:34:01Z</time>
      </trkpt>
      <trkpt lat="45.05591" lon="0.64334">
        <ele>105.4</ele>
        <time>2016-09-02T09:34:20Z</time>
      </trkpt>
      <trkpt lat="45.05577" lon="0.64362">
        <ele>105.4</ele>
        <time>2016-09-02T09:34:41Z</time>
      </trkpt>
      <trkpt lat="45.05557" lon="0.64388">
        <ele>104.92</ele>
        <time>2016-09-02T09:35:02Z</time>
      </trkpt>
      <trkpt lat="45.05538" lon="0.64413">
        <ele>104.92</ele>
        <time>2016-09-02T09:35:20Z</time>
      </trkpt>
      <trkpt lat="45.05517" lon="0.64441">
        <ele>104.92</ele>
        <time>2016-09-02T09:35:41Z</time>
      </trkpt>
      <trkpt lat="45.05498" lon="0.64467">
        <ele>104.92</ele>
        <time>2016-09-02T09:36:03Z</time>
      </trkpt>
      <trkpt lat="45.05484" lon="0.6449">
        <ele>104.92</ele>
        <time>2016-09-02T09:36:22Z</time>
      </trkpt>
      <trkpt lat="45.05464" lon="0.64516">
        <ele>104.92</ele>
        <time>2016-09-02T09:36:43Z</time>
      </trkpt>
      <trkpt lat="45.05457" lon="0.64526">
        <ele>104.92</ele>
        <time>2016-09-02T09:36:52Z</time>
      </trkpt>
      <trkpt lat="45.05439" lon="0.64548">
        <ele>104.92</ele>
        <time>2016-09-02T09:37:10Z</time>
      </trkpt>
      <trkpt lat="45.05421" lon="0.6457">
        <ele>104.44</ele>
        <time>2016-09-02T09:37:28Z</time>
      </trkpt>
      <trkpt lat="45.054" lon="0.64599">
        <ele>104.44</ele>
        <time>2016-09-02T09:37:51Z</time>
      </trkpt>
      <trkpt lat="45.05393" lon="0.64614">
        <ele>104.44</ele>
        <time>2016-09-02T09:38:01Z</time>
      </trkpt>
      <trkpt lat="45.05373" lon="0.64646">
        <ele>104.44</ele>
        <time>2016-09-02T09:38:23Z</time>
      </trkpt>
      <trkpt lat="45.05359" lon="0.64668">
        <ele>105.4</ele>
        <time>2016-09-02T09:38:41Z</time>
      </trkpt>
      <trkpt lat="45.05346" lon="0.64687">
        <ele>105.4</ele>
        <time>2016-09-02T09:39:01Z</time>
      </trkpt>
      <trkpt lat="45.0533" lon="0.64703">
        <ele>105.4</ele>
        <time>2016-09-02T09:39:17Z</time>
      </trkpt>
      <trkpt lat="45.05309" lon="0.64721">
        <ele>105.4</ele>
        <time>2016-09-02T09:39:34Z</time>
      </trkpt>
      <trkpt lat="45.05294" lon="0.64734">
        <ele>105.4</ele>
        <time>2016-09-02T09:39:50Z</time>
      </trkpt>
      <trkpt lat="45.0528" lon="0.64749">
        <ele>105.4</ele>
        <time>2016-09-02T09:40:05Z</time>
      </trkpt>
      <trkpt lat="45.0527" lon="0.64763">
        <ele>105.4</ele>
        <time>2016-09-02T09:40:17Z</time>
      </trkpt>
      <trkpt lat="45.05251" lon="0.64787">
        <ele>105.4</ele>
        <time>2016-09-02T09:40:34Z</time>
      </trkpt>
      <trkpt lat="45.05245" lon="0.64796">
        <ele>105.4</ele>
        <time>2016-09-02T09:40:41Z</time>
      </trkpt>
      <trkpt lat="45.05227" lon="0.64818">
        <ele>105.4</ele>
        <time>2016-09-02T09:41:01Z</time>
      </trkpt>
      <trkpt lat="45.05212" lon="0.64836">
        <ele>105.88</ele>
        <time>2016-09-02T09:41:18Z</time>
      </trkpt>
      <trkpt lat="45.05197" lon="0.64854">
        <ele>105.88</ele>
        <time>2016-09-02T09:41:34Z</time>
      </trkpt>
      <trkpt lat="45.05174" lon="0.6488">
        <ele>105.88</ele>
        <time>2016-09-02T09:41:54Z</time>
      </trkpt>
      <trkpt lat="45.05162" lon="0.64895">
        <ele>105.88</ele>
        <time>2016-09-02T09:42:07Z</time>
      </trkpt>
      <trkpt lat="45.05149" lon="0.64919">
        <ele>105.88</ele>
        <time>2016-09-02T09:42:24Z</time>
      </trkpt>
      <trkpt lat="45.05134" lon="0.6495">
        <ele>105.88</ele>
        <time>2016-09-02T09:42:41Z</time>
      </trkpt>
      <trkpt lat="45.05124" lon="0.64978">
        <ele>105.4</ele>
        <time>2016-09-02T09:42:58Z</time>
      </trkpt>
      <trkpt lat="45.05123" lon="0.64983">
        <ele>105.4</ele>
        <time>2016-09-02T09:43:01Z</time>
      </trkpt>
      <trkpt lat="45.05119" lon="0.64993">
        <ele>105.88</ele>
        <time>2016-09-02T09:43:07Z</time>
      </trkpt>
      <trkpt lat="45.05107" lon="0.65019">
        <ele>106.36</ele>
        <time>2016-09-02T09:43:24Z</time>
      </trkpt>
      <trkpt lat="45.05097" lon="0.65046">
        <ele>106.84</ele>
        <time>2016-09-02T09:43:42Z</time>
      </trkpt>
      <trkpt lat="45.05086" lon="0.65077">
        <ele>107.32</ele>
        <time>2016-09-02T09:43:59Z</time>
      </trkpt>
      <trkpt lat="45.05078" lon="0.65102">
        <ele>108.29</ele>
        <time>2016-09-02T09:44:13Z</time>
      </trkpt>
      <trkpt lat="45.05063" lon="0.65132">
        <ele>109.25</ele>
        <time>2016-09-02T09:44:30Z</time>
      </trkpt>
      <trkpt lat="45.05045" lon="0.65166">
        <ele>110.69</ele>
        <time>2016-09-02T09:44:51Z</time>
      </trkpt>
      <trkpt lat="45.05025" lon="0.65195">
        <ele>110.69</ele>
        <time>2016-09-02T09:45:12Z</time>
      </trkpt>
      <trkpt lat="45.05009" lon="0.65216">
        <ele>111.65</ele>
        <time>2016-09-02T09:45:30Z</time>
      </trkpt>
      <trkpt lat="45.04992" lon="0.65246">
        <ele>111.65</ele>
        <time>2016-09-02T09:45:51Z</time>
      </trkpt>
      <trkpt lat="45.04978" lon="0.65272">
        <ele>111.65</ele>
        <time>2016-09-02T09:46:10Z</time>
      </trkpt>
      <trkpt lat="45.04962" lon="0.65279">
        <ele>110.69</ele>
        <time>2016-09-02T09:46:25Z</time>
      </trkpt>
      <trkpt lat="45.0494" lon="0.65286">
        <ele>111.65</ele>
        <time>2016-09-02T09:46:42Z</time>
      </trkpt>
      <trkpt lat="45.04922" lon="0.65291">
        <ele>113.57</ele>
        <time>2016-09-02T09:46:57Z</time>
      </trkpt>
      <trkpt lat="45.04903" lon="0.6529">
        <ele>114.05</ele>
        <time>2016-09-02T09:47:12Z</time>
      </trkpt>
      <trkpt lat="45.0488" lon="0.65276">
        <ele>115.5</ele>
        <time>2016-09-02T09:47:32Z</time>
      </trkpt>
      <trkpt lat="45.04862" lon="0.65261">
        <ele>115.98</ele>
        <time>2016-09-02T09:47:49Z</time>
      </trkpt>
      <trkpt lat="45.04849" lon="0.65249">
        <ele>115.01</ele>
        <time>2016-09-02T09:48:03Z</time>
      </trkpt>
      <trkpt lat="45.04833" lon="0.65236">
        <ele>114.53</ele>
        <time>2016-09-02T09:48:17Z</time>
      </trkpt>
      <trkpt lat="45.04817" lon="0.65227">
        <ele>114.05</ele>
        <time>2016-09-02T09:48:31Z</time>
      </trkpt>
      <trkpt lat="45.0481" lon="0.65227">
        <ele>113.09</ele>
        <time>2016-09-02T09:48:37Z</time>
      </trkpt>
      <trkpt lat="45.04805" lon="0.65248">
        <ele>111.65</ele>
        <time>2016-09-02T09:48:52Z</time>
      </trkpt>
      <trkpt lat="45.04806" lon="0.65255">
        <ele>111.65</ele>
        <time>2016-09-02T09:48:57Z</time>
      </trkpt>
      <trkpt lat="45.0482" lon="0.65276">
        <ele>111.17</ele>
        <time>2016-09-02T09:49:14Z</time>
      </trkpt>
      <trkpt lat="45.04822" lon="0.65281">
        <ele>111.17</ele>
        <time>2016-09-02T09:49:18Z</time>
      </trkpt>
      <trkpt lat="45.04827" lon="0.65306">
        <ele>110.21</ele>
        <time>2016-09-02T09:49:32Z</time>
      </trkpt>
      <trkpt lat="45.04829" lon="0.65338">
        <ele>109.73</ele>
        <time>2016-09-02T09:49:50Z</time>
      </trkpt>
      <trkpt lat="45.04827" lon="0.65339">
        <ele>109.73</ele>
        <time>2016-09-02T09:49:52Z</time>
      </trkpt>
      <trkpt lat="45.04815" lon="0.65349">
        <ele>111.17</ele>
        <time>2016-09-02T09:50:01Z</time>
      </trkpt>
      <trkpt lat="45.04813" lon="0.65349">
        <ele>111.17</ele>
        <time>2016-09-02T09:50:03Z</time>
      </trkpt>
      <trkpt lat="45.04795" lon="0.65354">
        <ele>112.61</ele>
        <time>2016-09-02T09:50:20Z</time>
      </trkpt>
      <trkpt lat="45.04781" lon="0.65365">
        <ele>114.05</ele>
        <time>2016-09-02T09:50:37Z</time>
      </trkpt>
      <trkpt lat="45.0478" lon="0.65362">
        <ele>114.05</ele>
        <time>2016-09-02T09:51:02Z</time>
      </trkpt>
    </trkseg>
  </trk>
</gpx>